<?xml version="1.0" encoding="UTF-8" standalone="no" ?>
<gpx xmlns="http://www.topografix.com/GPX/1/1" xmlns:xsi="http://www.w3.org/2001/XMLSchema-instance" xsi:schemaLocation="http://www.topografix.com/GPX/1/1 http://www.topografix.com/GPX/1/1/gpx.xsd" version="1.1" creator="VisuGPX - https://www.visugpx.com">
  <metadata>
    <name>Villers camping bois de Mogneville</name>
    <desc><![CDATA[pas de difficulté]]></desc>
  </metadata>
  <wpt lat="49.29271" lon="2.48547">
    <ele>95</ele>
  </wpt>
  <wpt lat="49.2928" lon="2.48556">
    <ele>85</ele>
  </wpt>
  <trk>
    <name><![CDATA[Villers camping bois de Mogneville_1]]></name>
    <trkseg>
      <trkpt lat="49.29271" lon="2.48547">
        <ele>95</ele>
        <time>2011-09-06T13:38:03Z</time>
      </trkpt>
      <trkpt lat="49.29273" lon="2.48562">
        <ele>105</ele>
        <time>2011-09-06T13:38:34Z</time>
      </trkpt>
      <trkpt lat="49.29268" lon="2.48575">
        <ele>99</ele>
        <time>2011-09-06T13:38:41Z</time>
      </trkpt>
      <trkpt lat="49.29278" lon="2.48563">
        <ele>99</ele>
        <time>2011-09-06T13:38:50Z</time>
      </trkpt>
      <trkpt lat="49.29288" lon="2.48552">
        <ele>99</ele>
        <time>2011-09-06T13:38:53Z</time>
      </trkpt>
      <trkpt lat="49.29294" lon="2.48541">
        <ele>99</ele>
        <time>2011-09-06T13:38:57Z</time>
      </trkpt>
      <trkpt lat="49.293" lon="2.48528">
        <ele>99</ele>
        <time>2011-09-06T13:39:07Z</time>
      </trkpt>
      <trkpt lat="49.29305" lon="2.48515">
        <ele>99</ele>
        <time>2011-09-06T13:39:15Z</time>
      </trkpt>
      <trkpt lat="49.2931" lon="2.48503">
        <ele>99</ele>
        <time>2011-09-06T13:39:23Z</time>
      </trkpt>
      <trkpt lat="49.29306" lon="2.48489">
        <ele>86</ele>
        <time>2011-09-06T13:39:29Z</time>
      </trkpt>
      <trkpt lat="49.29314" lon="2.4848">
        <ele>86</ele>
        <time>2011-09-06T13:39:37Z</time>
      </trkpt>
      <trkpt lat="49.2932" lon="2.4847">
        <ele>86</ele>
        <time>2011-09-06T13:39:44Z</time>
      </trkpt>
      <trkpt lat="49.29331" lon="2.48468">
        <ele>92</ele>
        <time>2011-09-06T13:39:50Z</time>
      </trkpt>
      <trkpt lat="49.29341" lon="2.48466">
        <ele>97</ele>
        <time>2011-09-06T13:39:55Z</time>
      </trkpt>
      <trkpt lat="49.2935" lon="2.48465">
        <ele>97</ele>
        <time>2011-09-06T13:40:01Z</time>
      </trkpt>
      <trkpt lat="49.2936" lon="2.48465">
        <ele>117</ele>
        <time>2011-09-06T13:40:10Z</time>
      </trkpt>
      <trkpt lat="49.2937" lon="2.48466">
        <ele>123</ele>
        <time>2011-09-06T13:40:20Z</time>
      </trkpt>
      <trkpt lat="49.2938" lon="2.48469">
        <ele>123</ele>
        <time>2011-09-06T13:40:28Z</time>
      </trkpt>
      <trkpt lat="49.29389" lon="2.48474">
        <ele>112</ele>
        <time>2011-09-06T13:40:37Z</time>
      </trkpt>
      <trkpt lat="49.29398" lon="2.48479">
        <ele>112</ele>
        <time>2011-09-06T13:40:45Z</time>
      </trkpt>
      <trkpt lat="49.29407" lon="2.48483">
        <ele>102</ele>
        <time>2011-09-06T13:40:53Z</time>
      </trkpt>
      <trkpt lat="49.29416" lon="2.48488">
        <ele>96</ele>
        <time>2011-09-06T13:41:00Z</time>
      </trkpt>
      <trkpt lat="49.29426" lon="2.48489">
        <ele>96</ele>
        <time>2011-09-06T13:41:07Z</time>
      </trkpt>
      <trkpt lat="49.29435" lon="2.48493">
        <ele>96</ele>
        <time>2011-09-06T13:41:13Z</time>
      </trkpt>
      <trkpt lat="49.29445" lon="2.48496">
        <ele>96</ele>
        <time>2011-09-06T13:41:20Z</time>
      </trkpt>
      <trkpt lat="49.29454" lon="2.48498">
        <ele>96</ele>
        <time>2011-09-06T13:41:27Z</time>
      </trkpt>
      <trkpt lat="49.29464" lon="2.48501">
        <ele>96</ele>
        <time>2011-09-06T13:41:34Z</time>
      </trkpt>
      <trkpt lat="49.29473" lon="2.48504">
        <ele>96</ele>
        <time>2011-09-06T13:41:41Z</time>
      </trkpt>
      <trkpt lat="49.29482" lon="2.48508">
        <ele>96</ele>
        <time>2011-09-06T13:41:48Z</time>
      </trkpt>
      <trkpt lat="49.29492" lon="2.4851">
        <ele>96</ele>
        <time>2011-09-06T13:41:55Z</time>
      </trkpt>
      <trkpt lat="49.29501" lon="2.48515">
        <ele>96</ele>
        <time>2011-09-06T13:42:02Z</time>
      </trkpt>
      <trkpt lat="49.29511" lon="2.48518">
        <ele>96</ele>
        <time>2011-09-06T13:42:09Z</time>
      </trkpt>
      <trkpt lat="49.2952" lon="2.48518">
        <ele>96</ele>
        <time>2011-09-06T13:42:16Z</time>
      </trkpt>
      <trkpt lat="49.29529" lon="2.48521">
        <ele>96</ele>
        <time>2011-09-06T13:42:23Z</time>
      </trkpt>
      <trkpt lat="49.29539" lon="2.48521">
        <ele>96</ele>
        <time>2011-09-06T13:42:30Z</time>
      </trkpt>
      <trkpt lat="49.29538" lon="2.48505">
        <ele>96</ele>
        <time>2011-09-06T13:42:40Z</time>
      </trkpt>
      <trkpt lat="49.29532" lon="2.48493">
        <ele>96</ele>
        <time>2011-09-06T13:42:48Z</time>
      </trkpt>
      <trkpt lat="49.29526" lon="2.4848">
        <ele>96</ele>
        <time>2011-09-06T13:42:55Z</time>
      </trkpt>
      <trkpt lat="49.29522" lon="2.48466">
        <ele>103</ele>
        <time>2011-09-06T13:43:02Z</time>
      </trkpt>
      <trkpt lat="49.29518" lon="2.48453">
        <ele>103</ele>
        <time>2011-09-06T13:43:09Z</time>
      </trkpt>
      <trkpt lat="49.29512" lon="2.48441">
        <ele>103</ele>
        <time>2011-09-06T13:43:16Z</time>
      </trkpt>
      <trkpt lat="49.29507" lon="2.48428">
        <ele>103</ele>
        <time>2011-09-06T13:43:23Z</time>
      </trkpt>
      <trkpt lat="49.29502" lon="2.48416">
        <ele>103</ele>
        <time>2011-09-06T13:43:30Z</time>
      </trkpt>
      <trkpt lat="49.29497" lon="2.48403">
        <ele>103</ele>
        <time>2011-09-06T13:43:37Z</time>
      </trkpt>
      <trkpt lat="49.29491" lon="2.48391">
        <ele>103</ele>
        <time>2011-09-06T13:43:44Z</time>
      </trkpt>
      <trkpt lat="49.29487" lon="2.48379">
        <ele>103</ele>
        <time>2011-09-06T13:43:51Z</time>
      </trkpt>
      <trkpt lat="49.29481" lon="2.48367">
        <ele>103</ele>
        <time>2011-09-06T13:43:58Z</time>
      </trkpt>
      <trkpt lat="49.29476" lon="2.48355">
        <ele>103</ele>
        <time>2011-09-06T13:44:05Z</time>
      </trkpt>
      <trkpt lat="49.29469" lon="2.48342">
        <ele>103</ele>
        <time>2011-09-06T13:44:13Z</time>
      </trkpt>
      <trkpt lat="49.29464" lon="2.48329">
        <ele>103</ele>
        <time>2011-09-06T13:44:21Z</time>
      </trkpt>
      <trkpt lat="49.29458" lon="2.48316">
        <ele>103</ele>
        <time>2011-09-06T13:44:28Z</time>
      </trkpt>
      <trkpt lat="49.29452" lon="2.48305">
        <ele>103</ele>
        <time>2011-09-06T13:44:34Z</time>
      </trkpt>
      <trkpt lat="49.29447" lon="2.48293">
        <ele>103</ele>
        <time>2011-09-06T13:44:41Z</time>
      </trkpt>
      <trkpt lat="49.29441" lon="2.48279">
        <ele>103</ele>
        <time>2011-09-06T13:44:49Z</time>
      </trkpt>
      <trkpt lat="49.29436" lon="2.48266">
        <ele>103</ele>
        <time>2011-09-06T13:44:57Z</time>
      </trkpt>
      <trkpt lat="49.29431" lon="2.48252">
        <ele>103</ele>
        <time>2011-09-06T13:45:05Z</time>
      </trkpt>
      <trkpt lat="49.29425" lon="2.4824">
        <ele>103</ele>
        <time>2011-09-06T13:45:12Z</time>
      </trkpt>
      <trkpt lat="49.2942" lon="2.48229">
        <ele>103</ele>
        <time>2011-09-06T13:45:20Z</time>
      </trkpt>
      <trkpt lat="49.29414" lon="2.48217">
        <ele>103</ele>
        <time>2011-09-06T13:45:28Z</time>
      </trkpt>
      <trkpt lat="49.29408" lon="2.48205">
        <ele>103</ele>
        <time>2011-09-06T13:45:35Z</time>
      </trkpt>
      <trkpt lat="49.29403" lon="2.48192">
        <ele>103</ele>
        <time>2011-09-06T13:45:43Z</time>
      </trkpt>
      <trkpt lat="49.29403" lon="2.48177">
        <ele>103</ele>
        <time>2011-09-06T13:45:50Z</time>
      </trkpt>
      <trkpt lat="49.2941" lon="2.48167">
        <ele>103</ele>
        <time>2011-09-06T13:45:57Z</time>
      </trkpt>
      <trkpt lat="49.29418" lon="2.48157">
        <ele>103</ele>
        <time>2011-09-06T13:46:04Z</time>
      </trkpt>
      <trkpt lat="49.29427" lon="2.48149">
        <ele>103</ele>
        <time>2011-09-06T13:46:12Z</time>
      </trkpt>
      <trkpt lat="49.29434" lon="2.48141">
        <ele>103</ele>
        <time>2011-09-06T13:46:19Z</time>
      </trkpt>
      <trkpt lat="49.29442" lon="2.48132">
        <ele>103</ele>
        <time>2011-09-06T13:46:27Z</time>
      </trkpt>
      <trkpt lat="49.29451" lon="2.48124">
        <ele>103</ele>
        <time>2011-09-06T13:46:35Z</time>
      </trkpt>
      <trkpt lat="49.29459" lon="2.48116">
        <ele>103</ele>
        <time>2011-09-06T13:46:42Z</time>
      </trkpt>
      <trkpt lat="49.29467" lon="2.48108">
        <ele>103</ele>
        <time>2011-09-06T13:46:49Z</time>
      </trkpt>
      <trkpt lat="49.29475" lon="2.48098">
        <ele>103</ele>
        <time>2011-09-06T13:46:57Z</time>
      </trkpt>
      <trkpt lat="49.29483" lon="2.4809">
        <ele>103</ele>
        <time>2011-09-06T13:47:04Z</time>
      </trkpt>
      <trkpt lat="49.29491" lon="2.48081">
        <ele>103</ele>
        <time>2011-09-06T13:47:12Z</time>
      </trkpt>
      <trkpt lat="49.29499" lon="2.48072">
        <ele>103</ele>
        <time>2011-09-06T13:47:19Z</time>
      </trkpt>
      <trkpt lat="49.29506" lon="2.48063">
        <ele>103</ele>
        <time>2011-09-06T13:47:26Z</time>
      </trkpt>
      <trkpt lat="49.29514" lon="2.48054">
        <ele>103</ele>
        <time>2011-09-06T13:47:33Z</time>
      </trkpt>
      <trkpt lat="49.29522" lon="2.48046">
        <ele>103</ele>
        <time>2011-09-06T13:47:40Z</time>
      </trkpt>
      <trkpt lat="49.29531" lon="2.48037">
        <ele>103</ele>
        <time>2011-09-06T13:47:48Z</time>
      </trkpt>
      <trkpt lat="49.29539" lon="2.4803">
        <ele>103</ele>
        <time>2011-09-06T13:47:55Z</time>
      </trkpt>
      <trkpt lat="49.29548" lon="2.48023">
        <ele>103</ele>
        <time>2011-09-06T13:48:02Z</time>
      </trkpt>
      <trkpt lat="49.29557" lon="2.48017">
        <ele>103</ele>
        <time>2011-09-06T13:48:09Z</time>
      </trkpt>
      <trkpt lat="49.29566" lon="2.4801">
        <ele>103</ele>
        <time>2011-09-06T13:48:16Z</time>
      </trkpt>
      <trkpt lat="49.29575" lon="2.48003">
        <ele>103</ele>
        <time>2011-09-06T13:48:22Z</time>
      </trkpt>
      <trkpt lat="49.29583" lon="2.47995">
        <ele>108</ele>
        <time>2011-09-06T13:48:31Z</time>
      </trkpt>
      <trkpt lat="49.29592" lon="2.47989">
        <ele>108</ele>
        <time>2011-09-06T13:48:38Z</time>
      </trkpt>
      <trkpt lat="49.29602" lon="2.47982">
        <ele>108</ele>
        <time>2011-09-06T13:48:46Z</time>
      </trkpt>
      <trkpt lat="49.2961" lon="2.47977">
        <ele>108</ele>
        <time>2011-09-06T13:48:53Z</time>
      </trkpt>
      <trkpt lat="49.2962" lon="2.47973">
        <ele>108</ele>
        <time>2011-09-06T13:49:00Z</time>
      </trkpt>
      <trkpt lat="49.29629" lon="2.47966">
        <ele>108</ele>
        <time>2011-09-06T13:49:07Z</time>
      </trkpt>
      <trkpt lat="49.29639" lon="2.47958">
        <ele>108</ele>
        <time>2011-09-06T13:49:14Z</time>
      </trkpt>
      <trkpt lat="49.29648" lon="2.47949">
        <ele>108</ele>
        <time>2011-09-06T13:49:21Z</time>
      </trkpt>
      <trkpt lat="49.29657" lon="2.47942">
        <ele>108</ele>
        <time>2011-09-06T13:49:28Z</time>
      </trkpt>
      <trkpt lat="49.29665" lon="2.47936">
        <ele>108</ele>
        <time>2011-09-06T13:49:35Z</time>
      </trkpt>
      <trkpt lat="49.29674" lon="2.47931">
        <ele>108</ele>
        <time>2011-09-06T13:49:42Z</time>
      </trkpt>
      <trkpt lat="49.29684" lon="2.47929">
        <ele>108</ele>
        <time>2011-09-06T13:49:50Z</time>
      </trkpt>
      <trkpt lat="49.29693" lon="2.47928">
        <ele>108</ele>
        <time>2011-09-06T13:49:57Z</time>
      </trkpt>
      <trkpt lat="49.29703" lon="2.47928">
        <ele>108</ele>
        <time>2011-09-06T13:50:04Z</time>
      </trkpt>
      <trkpt lat="49.29712" lon="2.47927">
        <ele>108</ele>
        <time>2011-09-06T13:50:11Z</time>
      </trkpt>
      <trkpt lat="49.29722" lon="2.47927">
        <ele>108</ele>
        <time>2011-09-06T13:50:18Z</time>
      </trkpt>
      <trkpt lat="49.29731" lon="2.47927">
        <ele>108</ele>
        <time>2011-09-06T13:50:25Z</time>
      </trkpt>
      <trkpt lat="49.2974" lon="2.47927">
        <ele>108</ele>
        <time>2011-09-06T13:50:32Z</time>
      </trkpt>
      <trkpt lat="49.2975" lon="2.47927">
        <ele>108</ele>
        <time>2011-09-06T13:50:39Z</time>
      </trkpt>
      <trkpt lat="49.2976" lon="2.47926">
        <ele>108</ele>
        <time>2011-09-06T13:50:46Z</time>
      </trkpt>
      <trkpt lat="49.2977" lon="2.47925">
        <ele>108</ele>
        <time>2011-09-06T13:50:53Z</time>
      </trkpt>
      <trkpt lat="49.29779" lon="2.47925">
        <ele>108</ele>
        <time>2011-09-06T13:51:00Z</time>
      </trkpt>
      <trkpt lat="49.29789" lon="2.47924">
        <ele>108</ele>
        <time>2011-09-06T13:51:07Z</time>
      </trkpt>
      <trkpt lat="49.29799" lon="2.47924">
        <ele>108</ele>
        <time>2011-09-06T13:51:14Z</time>
      </trkpt>
      <trkpt lat="49.29809" lon="2.47923">
        <ele>108</ele>
        <time>2011-09-06T13:51:21Z</time>
      </trkpt>
      <trkpt lat="49.29819" lon="2.47922">
        <ele>108</ele>
        <time>2011-09-06T13:51:28Z</time>
      </trkpt>
      <trkpt lat="49.29828" lon="2.47922">
        <ele>108</ele>
        <time>2011-09-06T13:51:34Z</time>
      </trkpt>
      <trkpt lat="49.29839" lon="2.47921">
        <ele>102</ele>
        <time>2011-09-06T13:51:41Z</time>
      </trkpt>
      <trkpt lat="49.29849" lon="2.47921">
        <ele>102</ele>
        <time>2011-09-06T13:51:48Z</time>
      </trkpt>
      <trkpt lat="49.29858" lon="2.47922">
        <ele>102</ele>
        <time>2011-09-06T13:51:54Z</time>
      </trkpt>
      <trkpt lat="49.29862" lon="2.47909">
        <ele>102</ele>
        <time>2011-09-06T13:52:02Z</time>
      </trkpt>
      <trkpt lat="49.29863" lon="2.47894">
        <ele>102</ele>
        <time>2011-09-06T13:52:09Z</time>
      </trkpt>
      <trkpt lat="49.29865" lon="2.47878">
        <ele>102</ele>
        <time>2011-09-06T13:52:16Z</time>
      </trkpt>
      <trkpt lat="49.29867" lon="2.47863">
        <ele>102</ele>
        <time>2011-09-06T13:52:23Z</time>
      </trkpt>
      <trkpt lat="49.29869" lon="2.47849">
        <ele>102</ele>
        <time>2011-09-06T13:52:30Z</time>
      </trkpt>
      <trkpt lat="49.29871" lon="2.47834">
        <ele>102</ele>
        <time>2011-09-06T13:52:37Z</time>
      </trkpt>
      <trkpt lat="49.29874" lon="2.4782">
        <ele>102</ele>
        <time>2011-09-06T13:52:44Z</time>
      </trkpt>
      <trkpt lat="49.29878" lon="2.47806">
        <ele>102</ele>
        <time>2011-09-06T13:52:51Z</time>
      </trkpt>
      <trkpt lat="49.29883" lon="2.47793">
        <ele>102</ele>
        <time>2011-09-06T13:52:57Z</time>
      </trkpt>
      <trkpt lat="49.29888" lon="2.47782">
        <ele>102</ele>
        <time>2011-09-06T13:53:03Z</time>
      </trkpt>
      <trkpt lat="49.29892" lon="2.47767">
        <ele>102</ele>
        <time>2011-09-06T13:53:10Z</time>
      </trkpt>
      <trkpt lat="49.29895" lon="2.47754">
        <ele>102</ele>
        <time>2011-09-06T13:53:17Z</time>
      </trkpt>
      <trkpt lat="49.29894" lon="2.47739">
        <ele>102</ele>
        <time>2011-09-06T13:53:24Z</time>
      </trkpt>
      <trkpt lat="49.29894" lon="2.47725">
        <ele>102</ele>
        <time>2011-09-06T13:53:31Z</time>
      </trkpt>
      <trkpt lat="49.29894" lon="2.4771">
        <ele>102</ele>
        <time>2011-09-06T13:53:38Z</time>
      </trkpt>
      <trkpt lat="49.29891" lon="2.47694">
        <ele>102</ele>
        <time>2011-09-06T13:53:46Z</time>
      </trkpt>
      <trkpt lat="49.29887" lon="2.4768">
        <ele>97</ele>
        <time>2011-09-06T13:53:53Z</time>
      </trkpt>
      <trkpt lat="49.29885" lon="2.47664">
        <ele>97</ele>
        <time>2011-09-06T13:54:00Z</time>
      </trkpt>
      <trkpt lat="49.29881" lon="2.47651">
        <ele>97</ele>
        <time>2011-09-06T13:54:07Z</time>
      </trkpt>
      <trkpt lat="49.29874" lon="2.47639">
        <ele>97</ele>
        <time>2011-09-06T13:54:15Z</time>
      </trkpt>
      <trkpt lat="49.29869" lon="2.47625">
        <ele>97</ele>
        <time>2011-09-06T13:54:22Z</time>
      </trkpt>
      <trkpt lat="49.29863" lon="2.47613">
        <ele>97</ele>
        <time>2011-09-06T13:54:29Z</time>
      </trkpt>
      <trkpt lat="49.29857" lon="2.47601">
        <ele>97</ele>
        <time>2011-09-06T13:54:35Z</time>
      </trkpt>
      <trkpt lat="49.29853" lon="2.47587">
        <ele>97</ele>
        <time>2011-09-06T13:54:42Z</time>
      </trkpt>
      <trkpt lat="49.29847" lon="2.47575">
        <ele>91</ele>
        <time>2011-09-06T13:54:49Z</time>
      </trkpt>
      <trkpt lat="49.29841" lon="2.47563">
        <ele>91</ele>
        <time>2011-09-06T13:54:58Z</time>
      </trkpt>
      <trkpt lat="49.29837" lon="2.4755">
        <ele>91</ele>
        <time>2011-09-06T13:55:04Z</time>
      </trkpt>
      <trkpt lat="49.2983" lon="2.4754">
        <ele>91</ele>
        <time>2011-09-06T13:55:11Z</time>
      </trkpt>
      <trkpt lat="49.29823" lon="2.47528">
        <ele>91</ele>
        <time>2011-09-06T13:55:20Z</time>
      </trkpt>
      <trkpt lat="49.29817" lon="2.47518">
        <ele>91</ele>
        <time>2011-09-06T13:55:27Z</time>
      </trkpt>
      <trkpt lat="49.29811" lon="2.47507">
        <ele>91</ele>
        <time>2011-09-06T13:55:35Z</time>
      </trkpt>
      <trkpt lat="49.29806" lon="2.47495">
        <ele>102</ele>
        <time>2011-09-06T13:55:43Z</time>
      </trkpt>
      <trkpt lat="49.29798" lon="2.47485">
        <ele>102</ele>
        <time>2011-09-06T13:55:50Z</time>
      </trkpt>
      <trkpt lat="49.29793" lon="2.47473">
        <ele>102</ele>
        <time>2011-09-06T13:55:58Z</time>
      </trkpt>
      <trkpt lat="49.29786" lon="2.47462">
        <ele>95</ele>
        <time>2011-09-06T13:56:05Z</time>
      </trkpt>
      <trkpt lat="49.2978" lon="2.4745">
        <ele>95</ele>
        <time>2011-09-06T13:56:13Z</time>
      </trkpt>
      <trkpt lat="49.29771" lon="2.47441">
        <ele>88</ele>
        <time>2011-09-06T13:56:19Z</time>
      </trkpt>
      <trkpt lat="49.29764" lon="2.47432">
        <ele>83</ele>
        <time>2011-09-06T13:56:25Z</time>
      </trkpt>
      <trkpt lat="49.29757" lon="2.4742">
        <ele>83</ele>
        <time>2011-09-06T13:56:32Z</time>
      </trkpt>
      <trkpt lat="49.29752" lon="2.47408">
        <ele>95</ele>
        <time>2011-09-06T13:56:40Z</time>
      </trkpt>
      <trkpt lat="49.29749" lon="2.47393">
        <ele>95</ele>
        <time>2011-09-06T13:56:49Z</time>
      </trkpt>
      <trkpt lat="49.29743" lon="2.47379">
        <ele>95</ele>
        <time>2011-09-06T13:56:56Z</time>
      </trkpt>
      <trkpt lat="49.29737" lon="2.47367">
        <ele>95</ele>
        <time>2011-09-06T13:57:03Z</time>
      </trkpt>
      <trkpt lat="49.29732" lon="2.47356">
        <ele>101</ele>
        <time>2011-09-06T13:57:10Z</time>
      </trkpt>
      <trkpt lat="49.2973" lon="2.47341">
        <ele>101</ele>
        <time>2011-09-06T13:57:16Z</time>
      </trkpt>
      <trkpt lat="49.29725" lon="2.47329">
        <ele>88</ele>
        <time>2011-09-06T13:57:24Z</time>
      </trkpt>
      <trkpt lat="49.29734" lon="2.47321">
        <ele>88</ele>
        <time>2011-09-06T13:57:31Z</time>
      </trkpt>
      <trkpt lat="49.29738" lon="2.47307">
        <ele>88</ele>
        <time>2011-09-06T13:57:39Z</time>
      </trkpt>
      <trkpt lat="49.29744" lon="2.47296">
        <ele>88</ele>
        <time>2011-09-06T13:57:48Z</time>
      </trkpt>
      <trkpt lat="49.2975" lon="2.47285">
        <ele>88</ele>
        <time>2011-09-06T13:57:58Z</time>
      </trkpt>
      <trkpt lat="49.29759" lon="2.47277">
        <ele>88</ele>
        <time>2011-09-06T13:58:07Z</time>
      </trkpt>
      <trkpt lat="49.29766" lon="2.47268">
        <ele>79</ele>
        <time>2011-09-06T13:58:15Z</time>
      </trkpt>
      <trkpt lat="49.29771" lon="2.47254">
        <ele>79</ele>
        <time>2011-09-06T13:58:24Z</time>
      </trkpt>
      <trkpt lat="49.29774" lon="2.47239">
        <ele>84</ele>
        <time>2011-09-06T13:58:31Z</time>
      </trkpt>
      <trkpt lat="49.29772" lon="2.47225">
        <ele>84</ele>
        <time>2011-09-06T13:58:41Z</time>
      </trkpt>
      <trkpt lat="49.29766" lon="2.47214">
        <ele>73</ele>
        <time>2011-09-06T13:58:49Z</time>
      </trkpt>
      <trkpt lat="49.29766" lon="2.47198">
        <ele>80</ele>
        <time>2011-09-06T13:58:56Z</time>
      </trkpt>
      <trkpt lat="49.2976" lon="2.47186">
        <ele>69</ele>
        <time>2011-09-06T13:59:03Z</time>
      </trkpt>
      <trkpt lat="49.29759" lon="2.47171">
        <ele>59</ele>
        <time>2011-09-06T13:59:15Z</time>
      </trkpt>
      <trkpt lat="49.29763" lon="2.47158">
        <ele>51</ele>
        <time>2011-09-06T13:59:26Z</time>
      </trkpt>
      <trkpt lat="49.29764" lon="2.47144">
        <ele>51</ele>
        <time>2011-09-06T13:59:32Z</time>
      </trkpt>
      <trkpt lat="49.29767" lon="2.47129">
        <ele>51</ele>
        <time>2011-09-06T13:59:40Z</time>
      </trkpt>
      <trkpt lat="49.2977" lon="2.47113">
        <ele>66</ele>
        <time>2011-09-06T13:59:46Z</time>
      </trkpt>
      <trkpt lat="49.29775" lon="2.47099">
        <ele>66</ele>
        <time>2011-09-06T13:59:55Z</time>
      </trkpt>
      <trkpt lat="49.2978" lon="2.47085">
        <ele>59</ele>
        <time>2011-09-06T14:00:05Z</time>
      </trkpt>
      <trkpt lat="49.29786" lon="2.47074">
        <ele>59</ele>
        <time>2011-09-06T14:00:10Z</time>
      </trkpt>
      <trkpt lat="49.29788" lon="2.4706">
        <ele>59</ele>
        <time>2011-09-06T14:00:15Z</time>
      </trkpt>
      <trkpt lat="49.29791" lon="2.47046">
        <ele>67</ele>
        <time>2011-09-06T14:00:22Z</time>
      </trkpt>
      <trkpt lat="49.29797" lon="2.47033">
        <ele>79</ele>
        <time>2011-09-06T14:00:30Z</time>
      </trkpt>
      <trkpt lat="49.29801" lon="2.47021">
        <ele>79</ele>
        <time>2011-09-06T14:00:37Z</time>
      </trkpt>
      <trkpt lat="49.2981" lon="2.47012">
        <ele>67</ele>
        <time>2011-09-06T14:00:47Z</time>
      </trkpt>
      <trkpt lat="49.29812" lon="2.46998">
        <ele>59</ele>
        <time>2011-09-06T14:00:56Z</time>
      </trkpt>
      <trkpt lat="49.29813" lon="2.46984">
        <ele>52</ele>
        <time>2011-09-06T14:01:07Z</time>
      </trkpt>
      <trkpt lat="49.29814" lon="2.46969">
        <ele>37</ele>
        <time>2011-09-06T14:01:22Z</time>
      </trkpt>
      <trkpt lat="49.29818" lon="2.46957">
        <ele>28</ele>
        <time>2011-09-06T14:01:33Z</time>
      </trkpt>
      <trkpt lat="49.29818" lon="2.46942">
        <ele>18</ele>
        <time>2011-09-06T14:01:42Z</time>
      </trkpt>
      <trkpt lat="49.29816" lon="2.46925">
        <ele>18</ele>
        <time>2011-09-06T14:01:52Z</time>
      </trkpt>
      <trkpt lat="49.29814" lon="2.46912">
        <ele>12</ele>
        <time>2011-09-06T14:02:00Z</time>
      </trkpt>
      <trkpt lat="49.29819" lon="2.46899">
        <ele>20</ele>
        <time>2011-09-06T14:02:10Z</time>
      </trkpt>
      <trkpt lat="49.29829" lon="2.46899">
        <ele>31</ele>
        <time>2011-09-06T14:02:19Z</time>
      </trkpt>
      <trkpt lat="49.29838" lon="2.46905">
        <ele>31</ele>
        <time>2011-09-06T14:02:29Z</time>
      </trkpt>
      <trkpt lat="49.29848" lon="2.46911">
        <ele>41</ele>
        <time>2011-09-06T14:02:36Z</time>
      </trkpt>
      <trkpt lat="49.29857" lon="2.46918">
        <ele>48</ele>
        <time>2011-09-06T14:02:44Z</time>
      </trkpt>
      <trkpt lat="49.29865" lon="2.46927">
        <ele>48</ele>
        <time>2011-09-06T14:02:52Z</time>
      </trkpt>
      <trkpt lat="49.29871" lon="2.46939">
        <ele>48</ele>
        <time>2011-09-06T14:03:01Z</time>
      </trkpt>
      <trkpt lat="49.29877" lon="2.46951">
        <ele>53</ele>
        <time>2011-09-06T14:03:08Z</time>
      </trkpt>
      <trkpt lat="49.29883" lon="2.46961">
        <ele>53</ele>
        <time>2011-09-06T14:03:15Z</time>
      </trkpt>
      <trkpt lat="49.29888" lon="2.46972">
        <ele>53</ele>
        <time>2011-09-06T14:03:21Z</time>
      </trkpt>
      <trkpt lat="49.29894" lon="2.46984">
        <ele>53</ele>
        <time>2011-09-06T14:03:27Z</time>
      </trkpt>
      <trkpt lat="49.29897" lon="2.46997">
        <ele>59</ele>
        <time>2011-09-06T14:03:35Z</time>
      </trkpt>
      <trkpt lat="49.299" lon="2.47012">
        <ele>59</ele>
        <time>2011-09-06T14:03:53Z</time>
      </trkpt>
      <trkpt lat="49.29904" lon="2.47026">
        <ele>59</ele>
        <time>2011-09-06T14:04:02Z</time>
      </trkpt>
      <trkpt lat="49.29908" lon="2.4704">
        <ele>59</ele>
        <time>2011-09-06T14:04:10Z</time>
      </trkpt>
      <trkpt lat="49.29912" lon="2.47054">
        <ele>59</ele>
        <time>2011-09-06T14:04:18Z</time>
      </trkpt>
      <trkpt lat="49.29917" lon="2.47067">
        <ele>69</ele>
        <time>2011-09-06T14:04:25Z</time>
      </trkpt>
      <trkpt lat="49.29923" lon="2.47078">
        <ele>69</ele>
        <time>2011-09-06T14:04:33Z</time>
      </trkpt>
      <trkpt lat="49.29928" lon="2.47091">
        <ele>69</ele>
        <time>2011-09-06T14:04:40Z</time>
      </trkpt>
      <trkpt lat="49.2993" lon="2.47105">
        <ele>76</ele>
        <time>2011-09-06T14:04:47Z</time>
      </trkpt>
      <trkpt lat="49.29931" lon="2.4712">
        <ele>68</ele>
        <time>2011-09-06T14:04:54Z</time>
      </trkpt>
      <trkpt lat="49.29937" lon="2.47131">
        <ele>68</ele>
        <time>2011-09-06T14:05:04Z</time>
      </trkpt>
      <trkpt lat="49.29945" lon="2.4714">
        <ele>57</ele>
        <time>2011-09-06T14:05:15Z</time>
      </trkpt>
      <trkpt lat="49.29951" lon="2.4715">
        <ele>57</ele>
        <time>2011-09-06T14:05:23Z</time>
      </trkpt>
      <trkpt lat="49.29957" lon="2.47162">
        <ele>57</ele>
        <time>2011-09-06T14:05:33Z</time>
      </trkpt>
      <trkpt lat="49.29964" lon="2.47172">
        <ele>57</ele>
        <time>2011-09-06T14:05:40Z</time>
      </trkpt>
      <trkpt lat="49.29969" lon="2.47185">
        <ele>57</ele>
        <time>2011-09-06T14:05:48Z</time>
      </trkpt>
      <trkpt lat="49.29974" lon="2.47198">
        <ele>65</ele>
        <time>2011-09-06T14:05:55Z</time>
      </trkpt>
      <trkpt lat="49.29976" lon="2.47212">
        <ele>65</ele>
        <time>2011-09-06T14:06:03Z</time>
      </trkpt>
      <trkpt lat="49.29983" lon="2.47224">
        <ele>70</ele>
        <time>2011-09-06T14:06:11Z</time>
      </trkpt>
      <trkpt lat="49.29988" lon="2.47237">
        <ele>70</ele>
        <time>2011-09-06T14:06:18Z</time>
      </trkpt>
      <trkpt lat="49.29988" lon="2.47252">
        <ele>70</ele>
        <time>2011-09-06T14:06:26Z</time>
      </trkpt>
      <trkpt lat="49.29992" lon="2.47265">
        <ele>70</ele>
        <time>2011-09-06T14:06:33Z</time>
      </trkpt>
      <trkpt lat="49.29998" lon="2.47277">
        <ele>70</ele>
        <time>2011-09-06T14:06:44Z</time>
      </trkpt>
      <trkpt lat="49.30008" lon="2.4728">
        <ele>65</ele>
        <time>2011-09-06T14:06:55Z</time>
      </trkpt>
      <trkpt lat="49.30017" lon="2.47283">
        <ele>56</ele>
        <time>2011-09-06T14:07:09Z</time>
      </trkpt>
      <trkpt lat="49.30026" lon="2.47281">
        <ele>56</ele>
        <time>2011-09-06T14:07:19Z</time>
      </trkpt>
      <trkpt lat="49.30035" lon="2.47287">
        <ele>49</ele>
        <time>2011-09-06T14:07:27Z</time>
      </trkpt>
      <trkpt lat="49.30043" lon="2.47294">
        <ele>49</ele>
        <time>2011-09-06T14:07:35Z</time>
      </trkpt>
      <trkpt lat="49.30049" lon="2.47304">
        <ele>49</ele>
        <time>2011-09-06T14:07:45Z</time>
      </trkpt>
      <trkpt lat="49.30059" lon="2.4731">
        <ele>49</ele>
        <time>2011-09-06T14:07:57Z</time>
      </trkpt>
      <trkpt lat="49.30068" lon="2.47311">
        <ele>49</ele>
        <time>2011-09-06T14:08:06Z</time>
      </trkpt>
      <trkpt lat="49.30059" lon="2.47316">
        <ele>57</ele>
        <time>2011-09-06T14:08:26Z</time>
      </trkpt>
      <trkpt lat="49.30052" lon="2.47306">
        <ele>57</ele>
        <time>2011-09-06T14:08:38Z</time>
      </trkpt>
      <trkpt lat="49.30048" lon="2.47294">
        <ele>46</ele>
        <time>2011-09-06T14:08:50Z</time>
      </trkpt>
      <trkpt lat="49.30046" lon="2.47279">
        <ele>37</ele>
        <time>2011-09-06T14:09:03Z</time>
      </trkpt>
      <trkpt lat="49.30047" lon="2.47265">
        <ele>37</ele>
        <time>2011-09-06T14:09:15Z</time>
      </trkpt>
      <trkpt lat="49.3004" lon="2.47256">
        <ele>44</ele>
        <time>2011-09-06T14:09:33Z</time>
      </trkpt>
      <trkpt lat="49.30038" lon="2.47242">
        <ele>56</ele>
        <time>2011-09-06T14:09:51Z</time>
      </trkpt>
      <trkpt lat="49.30044" lon="2.47231">
        <ele>61</ele>
        <time>2011-09-06T14:10:00Z</time>
      </trkpt>
      <trkpt lat="49.30051" lon="2.47222">
        <ele>55</ele>
        <time>2011-09-06T14:10:11Z</time>
      </trkpt>
      <trkpt lat="49.30061" lon="2.47216">
        <ele>50</ele>
        <time>2011-09-06T14:10:23Z</time>
      </trkpt>
      <trkpt lat="49.3007" lon="2.47215">
        <ele>50</ele>
        <time>2011-09-06T14:10:33Z</time>
      </trkpt>
      <trkpt lat="49.30079" lon="2.47221">
        <ele>50</ele>
        <time>2011-09-06T14:10:44Z</time>
      </trkpt>
      <trkpt lat="49.30088" lon="2.47223">
        <ele>50</ele>
        <time>2011-09-06T14:11:10Z</time>
      </trkpt>
      <trkpt lat="49.30097" lon="2.47228">
        <ele>50</ele>
        <time>2011-09-06T14:11:30Z</time>
      </trkpt>
      <trkpt lat="49.30102" lon="2.47241">
        <ele>50</ele>
        <time>2011-09-06T14:11:40Z</time>
      </trkpt>
      <trkpt lat="49.30108" lon="2.47252">
        <ele>50</ele>
        <time>2011-09-06T14:11:49Z</time>
      </trkpt>
      <trkpt lat="49.30115" lon="2.47262">
        <ele>50</ele>
        <time>2011-09-06T14:12:01Z</time>
      </trkpt>
      <trkpt lat="49.30122" lon="2.47273">
        <ele>57</ele>
        <time>2011-09-06T14:12:14Z</time>
      </trkpt>
      <trkpt lat="49.30132" lon="2.47278">
        <ele>57</ele>
        <time>2011-09-06T14:12:24Z</time>
      </trkpt>
      <trkpt lat="49.30139" lon="2.47287">
        <ele>57</ele>
        <time>2011-09-06T14:12:34Z</time>
      </trkpt>
      <trkpt lat="49.30144" lon="2.47302">
        <ele>57</ele>
        <time>2011-09-06T14:12:44Z</time>
      </trkpt>
      <trkpt lat="49.30147" lon="2.47315">
        <ele>64</ele>
        <time>2011-09-06T14:12:54Z</time>
      </trkpt>
      <trkpt lat="49.30153" lon="2.47328">
        <ele>64</ele>
        <time>2011-09-06T14:13:02Z</time>
      </trkpt>
      <trkpt lat="49.30156" lon="2.47343">
        <ele>64</ele>
        <time>2011-09-06T14:13:11Z</time>
      </trkpt>
      <trkpt lat="49.30165" lon="2.47351">
        <ele>64</ele>
        <time>2011-09-06T14:13:24Z</time>
      </trkpt>
      <trkpt lat="49.30171" lon="2.47365">
        <ele>54</ele>
        <time>2011-09-06T14:13:33Z</time>
      </trkpt>
      <trkpt lat="49.30175" lon="2.47381">
        <ele>60</ele>
        <time>2011-09-06T14:13:43Z</time>
      </trkpt>
      <trkpt lat="49.30179" lon="2.47396">
        <ele>60</ele>
        <time>2011-09-06T14:13:50Z</time>
      </trkpt>
      <trkpt lat="49.30184" lon="2.47409">
        <ele>60</ele>
        <time>2011-09-06T14:13:56Z</time>
      </trkpt>
      <trkpt lat="49.30189" lon="2.47426">
        <ele>45</ele>
        <time>2011-09-06T14:14:04Z</time>
      </trkpt>
      <trkpt lat="49.30194" lon="2.47438">
        <ele>45</ele>
        <time>2011-09-06T14:14:11Z</time>
      </trkpt>
      <trkpt lat="49.30199" lon="2.47451">
        <ele>51</ele>
        <time>2011-09-06T14:14:19Z</time>
      </trkpt>
      <trkpt lat="49.30197" lon="2.47465">
        <ele>63</ele>
        <time>2011-09-06T14:14:29Z</time>
      </trkpt>
      <trkpt lat="49.30206" lon="2.47471">
        <ele>38</ele>
        <time>2011-09-06T14:14:56Z</time>
      </trkpt>
      <trkpt lat="49.30209" lon="2.47485">
        <ele>43</ele>
        <time>2011-09-06T14:15:05Z</time>
      </trkpt>
      <trkpt lat="49.30211" lon="2.47499">
        <ele>43</ele>
        <time>2011-09-06T14:15:13Z</time>
      </trkpt>
      <trkpt lat="49.30213" lon="2.47514">
        <ele>55</ele>
        <time>2011-09-06T14:15:23Z</time>
      </trkpt>
      <trkpt lat="49.30216" lon="2.47529">
        <ele>61</ele>
        <time>2011-09-06T14:15:31Z</time>
      </trkpt>
      <trkpt lat="49.30221" lon="2.47542">
        <ele>61</ele>
        <time>2011-09-06T14:15:42Z</time>
      </trkpt>
      <trkpt lat="49.30224" lon="2.47555">
        <ele>61</ele>
        <time>2011-09-06T14:15:50Z</time>
      </trkpt>
      <trkpt lat="49.3023" lon="2.47566">
        <ele>72</ele>
        <time>2011-09-06T14:15:57Z</time>
      </trkpt>
      <trkpt lat="49.30231" lon="2.47581">
        <ele>72</ele>
        <time>2011-09-06T14:16:05Z</time>
      </trkpt>
      <trkpt lat="49.30237" lon="2.47596">
        <ele>72</ele>
        <time>2011-09-06T14:16:13Z</time>
      </trkpt>
      <trkpt lat="49.30243" lon="2.47609">
        <ele>81</ele>
        <time>2011-09-06T14:16:21Z</time>
      </trkpt>
      <trkpt lat="49.30246" lon="2.47624">
        <ele>81</ele>
        <time>2011-09-06T14:16:29Z</time>
      </trkpt>
      <trkpt lat="49.3025" lon="2.47637">
        <ele>65</ele>
        <time>2011-09-06T14:16:40Z</time>
      </trkpt>
      <trkpt lat="49.30251" lon="2.47651">
        <ele>59</ele>
        <time>2011-09-06T14:16:48Z</time>
      </trkpt>
      <trkpt lat="49.30251" lon="2.47668">
        <ele>52</ele>
        <time>2011-09-06T14:16:56Z</time>
      </trkpt>
      <trkpt lat="49.30256" lon="2.47682">
        <ele>62</ele>
        <time>2011-09-06T14:17:03Z</time>
      </trkpt>
      <trkpt lat="49.30262" lon="2.47693">
        <ele>69</ele>
        <time>2011-09-06T14:17:11Z</time>
      </trkpt>
      <trkpt lat="49.30265" lon="2.47708">
        <ele>69</ele>
        <time>2011-09-06T14:17:20Z</time>
      </trkpt>
      <trkpt lat="49.30269" lon="2.47721">
        <ele>63</ele>
        <time>2011-09-06T14:17:28Z</time>
      </trkpt>
      <trkpt lat="49.30276" lon="2.47731">
        <ele>69</ele>
        <time>2011-09-06T14:17:35Z</time>
      </trkpt>
      <trkpt lat="49.30282" lon="2.47746">
        <ele>69</ele>
        <time>2011-09-06T14:17:44Z</time>
      </trkpt>
      <trkpt lat="49.30285" lon="2.47776">
        <ele>69</ele>
        <time>2011-09-06T14:17:59Z</time>
      </trkpt>
      <trkpt lat="49.30294" lon="2.47783">
        <ele>69</ele>
        <time>2011-09-06T14:18:02Z</time>
      </trkpt>
      <trkpt lat="49.30294" lon="2.47798">
        <ele>69</ele>
        <time>2011-09-06T14:18:13Z</time>
      </trkpt>
      <trkpt lat="49.30297" lon="2.47811">
        <ele>69</ele>
        <time>2011-09-06T14:18:24Z</time>
      </trkpt>
      <trkpt lat="49.30304" lon="2.47821">
        <ele>69</ele>
        <time>2011-09-06T14:18:30Z</time>
      </trkpt>
      <trkpt lat="49.30304" lon="2.47836">
        <ele>69</ele>
        <time>2011-09-06T14:18:36Z</time>
      </trkpt>
      <trkpt lat="49.30309" lon="2.47848">
        <ele>62</ele>
        <time>2011-09-06T14:18:46Z</time>
      </trkpt>
      <trkpt lat="49.30314" lon="2.47861">
        <ele>62</ele>
        <time>2011-09-06T14:18:55Z</time>
      </trkpt>
      <trkpt lat="49.30318" lon="2.47874">
        <ele>62</ele>
        <time>2011-09-06T14:19:03Z</time>
      </trkpt>
      <trkpt lat="49.3032" lon="2.47887">
        <ele>69</ele>
        <time>2011-09-06T14:19:13Z</time>
      </trkpt>
      <trkpt lat="49.30323" lon="2.47901">
        <ele>69</ele>
        <time>2011-09-06T14:19:20Z</time>
      </trkpt>
      <trkpt lat="49.30327" lon="2.47914">
        <ele>69</ele>
        <time>2011-09-06T14:19:29Z</time>
      </trkpt>
      <trkpt lat="49.30333" lon="2.47925">
        <ele>69</ele>
        <time>2011-09-06T14:19:36Z</time>
      </trkpt>
      <trkpt lat="49.30334" lon="2.4794">
        <ele>69</ele>
        <time>2011-09-06T14:19:45Z</time>
      </trkpt>
      <trkpt lat="49.30339" lon="2.47952">
        <ele>69</ele>
        <time>2011-09-06T14:19:53Z</time>
      </trkpt>
      <trkpt lat="49.30344" lon="2.47965">
        <ele>76</ele>
        <time>2011-09-06T14:20:00Z</time>
      </trkpt>
      <trkpt lat="49.30346" lon="2.47982">
        <ele>70</ele>
        <time>2011-09-06T14:20:08Z</time>
      </trkpt>
      <trkpt lat="49.30354" lon="2.47988">
        <ele>70</ele>
        <time>2011-09-06T14:20:16Z</time>
      </trkpt>
      <trkpt lat="49.3036" lon="2.48">
        <ele>70</ele>
        <time>2011-09-06T14:20:29Z</time>
      </trkpt>
      <trkpt lat="49.30362" lon="2.48013">
        <ele>70</ele>
        <time>2011-09-06T14:20:35Z</time>
      </trkpt>
      <trkpt lat="49.30367" lon="2.48027">
        <ele>70</ele>
        <time>2011-09-06T14:20:44Z</time>
      </trkpt>
      <trkpt lat="49.30376" lon="2.4803">
        <ele>63</ele>
        <time>2011-09-06T14:20:52Z</time>
      </trkpt>
      <trkpt lat="49.30385" lon="2.48035">
        <ele>63</ele>
        <time>2011-09-06T14:21:02Z</time>
      </trkpt>
      <trkpt lat="49.30393" lon="2.48046">
        <ele>63</ele>
        <time>2011-09-06T14:21:11Z</time>
      </trkpt>
      <trkpt lat="49.30399" lon="2.48057">
        <ele>68</ele>
        <time>2011-09-06T14:21:19Z</time>
      </trkpt>
      <trkpt lat="49.30408" lon="2.48054">
        <ele>68</ele>
        <time>2011-09-06T14:21:45Z</time>
      </trkpt>
      <trkpt lat="49.30416" lon="2.48064">
        <ele>75</ele>
        <time>2011-09-06T14:21:51Z</time>
      </trkpt>
      <trkpt lat="49.30422" lon="2.48075">
        <ele>75</ele>
        <time>2011-09-06T14:21:58Z</time>
      </trkpt>
      <trkpt lat="49.30428" lon="2.48087">
        <ele>68</ele>
        <time>2011-09-06T14:22:07Z</time>
      </trkpt>
      <trkpt lat="49.30436" lon="2.481">
        <ele>68</ele>
        <time>2011-09-06T14:22:17Z</time>
      </trkpt>
      <trkpt lat="49.30444" lon="2.48109">
        <ele>68</ele>
        <time>2011-09-06T14:22:22Z</time>
      </trkpt>
      <trkpt lat="49.3045" lon="2.4812">
        <ele>68</ele>
        <time>2011-09-06T14:22:31Z</time>
      </trkpt>
      <trkpt lat="49.30459" lon="2.48129">
        <ele>75</ele>
        <time>2011-09-06T14:22:40Z</time>
      </trkpt>
      <trkpt lat="49.30468" lon="2.48135">
        <ele>82</ele>
        <time>2011-09-06T14:22:48Z</time>
      </trkpt>
      <trkpt lat="49.30471" lon="2.48149">
        <ele>75</ele>
        <time>2011-09-06T14:22:58Z</time>
      </trkpt>
      <trkpt lat="49.30476" lon="2.48163">
        <ele>75</ele>
        <time>2011-09-06T14:23:12Z</time>
      </trkpt>
      <trkpt lat="49.30481" lon="2.48175">
        <ele>75</ele>
        <time>2011-09-06T14:23:14Z</time>
      </trkpt>
      <trkpt lat="49.30489" lon="2.48183">
        <ele>75</ele>
        <time>2011-09-06T14:23:19Z</time>
      </trkpt>
      <trkpt lat="49.30496" lon="2.48192">
        <ele>68</ele>
        <time>2011-09-06T14:23:25Z</time>
      </trkpt>
      <trkpt lat="49.305" lon="2.48205">
        <ele>68</ele>
        <time>2011-09-06T14:23:35Z</time>
      </trkpt>
      <trkpt lat="49.30504" lon="2.48222">
        <ele>75</ele>
        <time>2011-09-06T14:23:45Z</time>
      </trkpt>
      <trkpt lat="49.30503" lon="2.48238">
        <ele>67</ele>
        <time>2011-09-06T14:23:55Z</time>
      </trkpt>
      <trkpt lat="49.30503" lon="2.48252">
        <ele>76</ele>
        <time>2011-09-06T14:24:05Z</time>
      </trkpt>
      <trkpt lat="49.30508" lon="2.48265">
        <ele>76</ele>
        <time>2011-09-06T14:24:14Z</time>
      </trkpt>
      <trkpt lat="49.30513" lon="2.48277">
        <ele>83</ele>
        <time>2011-09-06T14:24:21Z</time>
      </trkpt>
      <trkpt lat="49.30521" lon="2.48294">
        <ele>83</ele>
        <time>2011-09-06T14:24:30Z</time>
      </trkpt>
      <trkpt lat="49.30531" lon="2.48301">
        <ele>83</ele>
        <time>2011-09-06T14:24:37Z</time>
      </trkpt>
      <trkpt lat="49.30529" lon="2.48314">
        <ele>83</ele>
        <time>2011-09-06T14:24:45Z</time>
      </trkpt>
      <trkpt lat="49.30536" lon="2.48325">
        <ele>83</ele>
        <time>2011-09-06T14:24:53Z</time>
      </trkpt>
      <trkpt lat="49.3054" lon="2.48338">
        <ele>89</ele>
        <time>2011-09-06T14:25:02Z</time>
      </trkpt>
      <trkpt lat="49.30545" lon="2.48357">
        <ele>89</ele>
        <time>2011-09-06T14:25:17Z</time>
      </trkpt>
      <trkpt lat="49.3055" lon="2.48368">
        <ele>98</ele>
        <time>2011-09-06T14:25:23Z</time>
      </trkpt>
      <trkpt lat="49.30559" lon="2.48376">
        <ele>98</ele>
        <time>2011-09-06T14:25:26Z</time>
      </trkpt>
      <trkpt lat="49.30561" lon="2.4839">
        <ele>98</ele>
        <time>2011-09-06T14:25:37Z</time>
      </trkpt>
      <trkpt lat="49.30568" lon="2.48399">
        <ele>98</ele>
        <time>2011-09-06T14:25:44Z</time>
      </trkpt>
      <trkpt lat="49.30576" lon="2.48408">
        <ele>98</ele>
        <time>2011-09-06T14:25:53Z</time>
      </trkpt>
      <trkpt lat="49.30581" lon="2.48422">
        <ele>83</ele>
        <time>2011-09-06T14:26:04Z</time>
      </trkpt>
      <trkpt lat="49.30587" lon="2.48432">
        <ele>83</ele>
        <time>2011-09-06T14:26:09Z</time>
      </trkpt>
      <trkpt lat="49.30593" lon="2.48444">
        <ele>83</ele>
        <time>2011-09-06T14:26:16Z</time>
      </trkpt>
      <trkpt lat="49.30603" lon="2.48444">
        <ele>83</ele>
        <time>2011-09-06T14:26:37Z</time>
      </trkpt>
      <trkpt lat="49.30602" lon="2.48458">
        <ele>83</ele>
        <time>2011-09-06T14:26:49Z</time>
      </trkpt>
      <trkpt lat="49.30608" lon="2.4847">
        <ele>83</ele>
        <time>2011-09-06T14:26:58Z</time>
      </trkpt>
      <trkpt lat="49.30614" lon="2.48482">
        <ele>77</ele>
        <time>2011-09-06T14:27:07Z</time>
      </trkpt>
      <trkpt lat="49.3062" lon="2.48494">
        <ele>85</ele>
        <time>2011-09-06T14:27:16Z</time>
      </trkpt>
      <trkpt lat="49.30624" lon="2.48506">
        <ele>85</ele>
        <time>2011-09-06T14:27:25Z</time>
      </trkpt>
      <trkpt lat="49.30631" lon="2.48516">
        <ele>85</ele>
        <time>2011-09-06T14:27:38Z</time>
      </trkpt>
      <trkpt lat="49.30639" lon="2.48526">
        <ele>85</ele>
        <time>2011-09-06T14:27:48Z</time>
      </trkpt>
      <trkpt lat="49.30647" lon="2.48539">
        <ele>85</ele>
        <time>2011-09-06T14:27:53Z</time>
      </trkpt>
      <trkpt lat="49.30653" lon="2.4855">
        <ele>76</ele>
        <time>2011-09-06T14:28:03Z</time>
      </trkpt>
      <trkpt lat="49.30659" lon="2.48564">
        <ele>76</ele>
        <time>2011-09-06T14:28:13Z</time>
      </trkpt>
      <trkpt lat="49.30665" lon="2.48575">
        <ele>91</ele>
        <time>2011-09-06T14:28:26Z</time>
      </trkpt>
      <trkpt lat="49.30678" lon="2.48595">
        <ele>98</ele>
        <time>2011-09-06T14:28:36Z</time>
      </trkpt>
      <trkpt lat="49.30687" lon="2.48604">
        <ele>91</ele>
        <time>2011-09-06T14:28:51Z</time>
      </trkpt>
      <trkpt lat="49.30696" lon="2.48615">
        <ele>91</ele>
        <time>2011-09-06T14:28:59Z</time>
      </trkpt>
      <trkpt lat="49.30704" lon="2.48623">
        <ele>79</ele>
        <time>2011-09-06T14:29:07Z</time>
      </trkpt>
      <trkpt lat="49.30711" lon="2.48633">
        <ele>79</ele>
        <time>2011-09-06T14:29:19Z</time>
      </trkpt>
      <trkpt lat="49.30721" lon="2.48642">
        <ele>79</ele>
        <time>2011-09-06T14:29:30Z</time>
      </trkpt>
      <trkpt lat="49.30733" lon="2.4865">
        <ele>87</ele>
        <time>2011-09-06T14:29:41Z</time>
      </trkpt>
      <trkpt lat="49.30738" lon="2.48662">
        <ele>87</ele>
        <time>2011-09-06T14:29:50Z</time>
      </trkpt>
      <trkpt lat="49.30734" lon="2.48675">
        <ele>87</ele>
        <time>2011-09-06T14:30:00Z</time>
      </trkpt>
      <trkpt lat="49.30725" lon="2.48685">
        <ele>87</ele>
        <time>2011-09-06T14:30:09Z</time>
      </trkpt>
      <trkpt lat="49.30717" lon="2.48693">
        <ele>87</ele>
        <time>2011-09-06T14:30:17Z</time>
      </trkpt>
      <trkpt lat="49.30709" lon="2.48702">
        <ele>87</ele>
        <time>2011-09-06T14:30:26Z</time>
      </trkpt>
      <trkpt lat="49.30702" lon="2.48712">
        <ele>94</ele>
        <time>2011-09-06T14:30:35Z</time>
      </trkpt>
      <trkpt lat="49.30694" lon="2.4872">
        <ele>94</ele>
        <time>2011-09-06T14:30:41Z</time>
      </trkpt>
      <trkpt lat="49.30687" lon="2.4873">
        <ele>94</ele>
        <time>2011-09-06T14:30:49Z</time>
      </trkpt>
      <trkpt lat="49.3068" lon="2.48741">
        <ele>94</ele>
        <time>2011-09-06T14:30:59Z</time>
      </trkpt>
      <trkpt lat="49.3069" lon="2.48742">
        <ele>94</ele>
        <time>2011-09-06T14:31:16Z</time>
      </trkpt>
      <trkpt lat="49.30698" lon="2.48747">
        <ele>94</ele>
        <time>2011-09-06T14:31:25Z</time>
      </trkpt>
      <trkpt lat="49.30703" lon="2.48761">
        <ele>94</ele>
        <time>2011-09-06T14:31:34Z</time>
      </trkpt>
      <trkpt lat="49.30705" lon="2.48775">
        <ele>94</ele>
        <time>2011-09-06T14:31:42Z</time>
      </trkpt>
      <trkpt lat="49.30703" lon="2.48789">
        <ele>84</ele>
        <time>2011-09-06T14:31:53Z</time>
      </trkpt>
      <trkpt lat="49.30702" lon="2.48804">
        <ele>90</ele>
        <time>2011-09-06T14:32:12Z</time>
      </trkpt>
      <trkpt lat="49.30711" lon="2.48806">
        <ele>90</ele>
        <time>2011-09-06T14:32:49Z</time>
      </trkpt>
      <trkpt lat="49.30721" lon="2.48805">
        <ele>90</ele>
        <time>2011-09-06T14:32:59Z</time>
      </trkpt>
      <trkpt lat="49.3073" lon="2.48803">
        <ele>90</ele>
        <time>2011-09-06T14:33:08Z</time>
      </trkpt>
      <trkpt lat="49.3074" lon="2.48803">
        <ele>90</ele>
        <time>2011-09-06T14:33:17Z</time>
      </trkpt>
      <trkpt lat="49.30749" lon="2.48802">
        <ele>90</ele>
        <time>2011-09-06T14:33:26Z</time>
      </trkpt>
      <trkpt lat="49.30758" lon="2.48802">
        <ele>90</ele>
        <time>2011-09-06T14:33:35Z</time>
      </trkpt>
      <trkpt lat="49.30768" lon="2.48801">
        <ele>90</ele>
        <time>2011-09-06T14:33:52Z</time>
      </trkpt>
      <trkpt lat="49.30777" lon="2.488">
        <ele>90</ele>
        <time>2011-09-06T14:34:01Z</time>
      </trkpt>
      <trkpt lat="49.30787" lon="2.48799">
        <ele>99</ele>
        <time>2011-09-06T14:34:18Z</time>
      </trkpt>
      <trkpt lat="49.30797" lon="2.48799">
        <ele>99</ele>
        <time>2011-09-06T14:34:29Z</time>
      </trkpt>
      <trkpt lat="49.30807" lon="2.48798">
        <ele>99</ele>
        <time>2011-09-06T14:34:51Z</time>
      </trkpt>
      <trkpt lat="49.30816" lon="2.48798">
        <ele>99</ele>
        <time>2011-09-06T14:35:02Z</time>
      </trkpt>
      <trkpt lat="49.30825" lon="2.48797">
        <ele>99</ele>
        <time>2011-09-06T14:35:13Z</time>
      </trkpt>
      <trkpt lat="49.30835" lon="2.48797">
        <ele>99</ele>
        <time>2011-09-06T14:35:26Z</time>
      </trkpt>
      <trkpt lat="49.30844" lon="2.48794">
        <ele>92</ele>
        <time>2011-09-06T14:35:40Z</time>
      </trkpt>
      <trkpt lat="49.30854" lon="2.48794">
        <ele>92</ele>
        <time>2011-09-06T14:35:50Z</time>
      </trkpt>
      <trkpt lat="49.30863" lon="2.48796">
        <ele>92</ele>
        <time>2011-09-06T14:36:00Z</time>
      </trkpt>
      <trkpt lat="49.30872" lon="2.48797">
        <ele>97</ele>
        <time>2011-09-06T14:36:09Z</time>
      </trkpt>
      <trkpt lat="49.30883" lon="2.48796">
        <ele>97</ele>
        <time>2011-09-06T14:36:18Z</time>
      </trkpt>
      <trkpt lat="49.30893" lon="2.48792">
        <ele>97</ele>
        <time>2011-09-06T14:36:27Z</time>
      </trkpt>
      <trkpt lat="49.30903" lon="2.4879">
        <ele>88</ele>
        <time>2011-09-06T14:36:35Z</time>
      </trkpt>
      <trkpt lat="49.30912" lon="2.48788">
        <ele>88</ele>
        <time>2011-09-06T14:36:43Z</time>
      </trkpt>
      <trkpt lat="49.30922" lon="2.48788">
        <ele>88</ele>
        <time>2011-09-06T14:36:51Z</time>
      </trkpt>
      <trkpt lat="49.30932" lon="2.48784">
        <ele>88</ele>
        <time>2011-09-06T14:37:01Z</time>
      </trkpt>
      <trkpt lat="49.30942" lon="2.48782">
        <ele>88</ele>
        <time>2011-09-06T14:37:09Z</time>
      </trkpt>
      <trkpt lat="49.30951" lon="2.4878">
        <ele>88</ele>
        <time>2011-09-06T14:37:18Z</time>
      </trkpt>
      <trkpt lat="49.3096" lon="2.48779">
        <ele>88</ele>
        <time>2011-09-06T14:37:27Z</time>
      </trkpt>
      <trkpt lat="49.30969" lon="2.48775">
        <ele>88</ele>
        <time>2011-09-06T14:37:35Z</time>
      </trkpt>
      <trkpt lat="49.3098" lon="2.48772">
        <ele>88</ele>
        <time>2011-09-06T14:37:44Z</time>
      </trkpt>
      <trkpt lat="49.3099" lon="2.4877">
        <ele>88</ele>
        <time>2011-09-06T14:37:54Z</time>
      </trkpt>
      <trkpt lat="49.31" lon="2.4877">
        <ele>88</ele>
        <time>2011-09-06T14:38:01Z</time>
      </trkpt>
      <trkpt lat="49.31011" lon="2.48768">
        <ele>88</ele>
        <time>2011-09-06T14:38:09Z</time>
      </trkpt>
      <trkpt lat="49.31021" lon="2.48765">
        <ele>88</ele>
        <time>2011-09-06T14:38:16Z</time>
      </trkpt>
      <trkpt lat="49.31031" lon="2.48763">
        <ele>81</ele>
        <time>2011-09-06T14:38:22Z</time>
      </trkpt>
      <trkpt lat="49.3104" lon="2.48765">
        <ele>81</ele>
        <time>2011-09-06T14:38:33Z</time>
      </trkpt>
      <trkpt lat="49.31043" lon="2.48779">
        <ele>88</ele>
        <time>2011-09-06T14:38:42Z</time>
      </trkpt>
      <trkpt lat="49.31044" lon="2.48794">
        <ele>93</ele>
        <time>2011-09-06T14:38:49Z</time>
      </trkpt>
      <trkpt lat="49.31043" lon="2.4881">
        <ele>99</ele>
        <time>2011-09-06T14:38:57Z</time>
      </trkpt>
      <trkpt lat="49.31042" lon="2.48826">
        <ele>105</ele>
        <time>2011-09-06T14:39:05Z</time>
      </trkpt>
      <trkpt lat="49.31041" lon="2.48841">
        <ele>105</ele>
        <time>2011-09-06T14:39:14Z</time>
      </trkpt>
      <trkpt lat="49.31038" lon="2.48855">
        <ele>105</ele>
        <time>2011-09-06T14:39:21Z</time>
      </trkpt>
      <trkpt lat="49.31035" lon="2.48869">
        <ele>113</ele>
        <time>2011-09-06T14:39:30Z</time>
      </trkpt>
      <trkpt lat="49.3103" lon="2.48883">
        <ele>107</ele>
        <time>2011-09-06T14:39:39Z</time>
      </trkpt>
      <trkpt lat="49.31025" lon="2.48894">
        <ele>101</ele>
        <time>2011-09-06T14:39:45Z</time>
      </trkpt>
      <trkpt lat="49.31019" lon="2.48907">
        <ele>101</ele>
        <time>2011-09-06T14:39:54Z</time>
      </trkpt>
      <trkpt lat="49.31013" lon="2.48919">
        <ele>95</ele>
        <time>2011-09-06T14:40:02Z</time>
      </trkpt>
      <trkpt lat="49.3101" lon="2.48934">
        <ele>95</ele>
        <time>2011-09-06T14:40:10Z</time>
      </trkpt>
      <trkpt lat="49.31006" lon="2.48947">
        <ele>95</ele>
        <time>2011-09-06T14:40:18Z</time>
      </trkpt>
      <trkpt lat="49.31003" lon="2.48962">
        <ele>95</ele>
        <time>2011-09-06T14:40:25Z</time>
      </trkpt>
      <trkpt lat="49.30998" lon="2.48975">
        <ele>95</ele>
        <time>2011-09-06T14:40:33Z</time>
      </trkpt>
      <trkpt lat="49.30994" lon="2.48989">
        <ele>95</ele>
        <time>2011-09-06T14:40:40Z</time>
      </trkpt>
      <trkpt lat="49.30991" lon="2.49002">
        <ele>95</ele>
        <time>2011-09-06T14:40:47Z</time>
      </trkpt>
      <trkpt lat="49.3099" lon="2.49017">
        <ele>95</ele>
        <time>2011-09-06T14:40:55Z</time>
      </trkpt>
      <trkpt lat="49.30989" lon="2.49031">
        <ele>95</ele>
        <time>2011-09-06T14:41:02Z</time>
      </trkpt>
      <trkpt lat="49.30992" lon="2.49045">
        <ele>95</ele>
        <time>2011-09-06T14:41:10Z</time>
      </trkpt>
      <trkpt lat="49.30997" lon="2.49058">
        <ele>95</ele>
        <time>2011-09-06T14:41:17Z</time>
      </trkpt>
      <trkpt lat="49.31001" lon="2.49072">
        <ele>95</ele>
        <time>2011-09-06T14:41:25Z</time>
      </trkpt>
      <trkpt lat="49.31006" lon="2.49085">
        <ele>89</ele>
        <time>2011-09-06T14:41:33Z</time>
      </trkpt>
      <trkpt lat="49.3101" lon="2.49097">
        <ele>89</ele>
        <time>2011-09-06T14:41:41Z</time>
      </trkpt>
      <trkpt lat="49.31014" lon="2.4911">
        <ele>89</ele>
        <time>2011-09-06T14:41:49Z</time>
      </trkpt>
      <trkpt lat="49.31018" lon="2.49124">
        <ele>89</ele>
        <time>2011-09-06T14:41:57Z</time>
      </trkpt>
      <trkpt lat="49.31021" lon="2.49138">
        <ele>89</ele>
        <time>2011-09-06T14:42:04Z</time>
      </trkpt>
      <trkpt lat="49.31027" lon="2.4915">
        <ele>89</ele>
        <time>2011-09-06T14:42:13Z</time>
      </trkpt>
      <trkpt lat="49.31029" lon="2.49167">
        <ele>89</ele>
        <time>2011-09-06T14:42:21Z</time>
      </trkpt>
      <trkpt lat="49.31027" lon="2.49181">
        <ele>96</ele>
        <time>2011-09-06T14:42:30Z</time>
      </trkpt>
      <trkpt lat="49.31027" lon="2.49196">
        <ele>96</ele>
        <time>2011-09-06T14:42:39Z</time>
      </trkpt>
      <trkpt lat="49.31027" lon="2.49212">
        <ele>96</ele>
        <time>2011-09-06T14:42:49Z</time>
      </trkpt>
      <trkpt lat="49.31029" lon="2.49227">
        <ele>96</ele>
        <time>2011-09-06T14:42:57Z</time>
      </trkpt>
      <trkpt lat="49.31029" lon="2.49241">
        <ele>96</ele>
        <time>2011-09-06T14:43:04Z</time>
      </trkpt>
      <trkpt lat="49.31029" lon="2.49256">
        <ele>96</ele>
        <time>2011-09-06T14:43:13Z</time>
      </trkpt>
      <trkpt lat="49.3103" lon="2.49272">
        <ele>96</ele>
        <time>2011-09-06T14:43:22Z</time>
      </trkpt>
      <trkpt lat="49.31033" lon="2.49285">
        <ele>87</ele>
        <time>2011-09-06T14:43:31Z</time>
      </trkpt>
      <trkpt lat="49.31036" lon="2.49301">
        <ele>87</ele>
        <time>2011-09-06T14:43:39Z</time>
      </trkpt>
      <trkpt lat="49.31036" lon="2.49315">
        <ele>87</ele>
        <time>2011-09-06T14:43:48Z</time>
      </trkpt>
      <trkpt lat="49.31037" lon="2.49332">
        <ele>87</ele>
        <time>2011-09-06T14:43:57Z</time>
      </trkpt>
      <trkpt lat="49.31037" lon="2.49347">
        <ele>87</ele>
        <time>2011-09-06T14:44:04Z</time>
      </trkpt>
      <trkpt lat="49.31039" lon="2.49362">
        <ele>87</ele>
        <time>2011-09-06T14:44:11Z</time>
      </trkpt>
      <trkpt lat="49.31039" lon="2.49377">
        <ele>87</ele>
        <time>2011-09-06T14:44:19Z</time>
      </trkpt>
      <trkpt lat="49.3104" lon="2.49391">
        <ele>87</ele>
        <time>2011-09-06T14:44:26Z</time>
      </trkpt>
      <trkpt lat="49.3104" lon="2.49406">
        <ele>87</ele>
        <time>2011-09-06T14:44:35Z</time>
      </trkpt>
      <trkpt lat="49.31041" lon="2.49423">
        <ele>87</ele>
        <time>2011-09-06T14:44:43Z</time>
      </trkpt>
      <trkpt lat="49.31035" lon="2.49434">
        <ele>87</ele>
        <time>2011-09-06T14:44:49Z</time>
      </trkpt>
      <trkpt lat="49.31028" lon="2.49443">
        <ele>93</ele>
        <time>2011-09-06T14:44:55Z</time>
      </trkpt>
      <trkpt lat="49.3102" lon="2.49451">
        <ele>93</ele>
        <time>2011-09-06T14:45:02Z</time>
      </trkpt>
      <trkpt lat="49.31012" lon="2.4946">
        <ele>93</ele>
        <time>2011-09-06T14:45:10Z</time>
      </trkpt>
      <trkpt lat="49.31005" lon="2.49469">
        <ele>93</ele>
        <time>2011-09-06T14:45:17Z</time>
      </trkpt>
      <trkpt lat="49.30998" lon="2.49478">
        <ele>93</ele>
        <time>2011-09-06T14:45:24Z</time>
      </trkpt>
      <trkpt lat="49.3099" lon="2.49486">
        <ele>93</ele>
        <time>2011-09-06T14:45:32Z</time>
      </trkpt>
      <trkpt lat="49.30982" lon="2.49495">
        <ele>93</ele>
        <time>2011-09-06T14:45:41Z</time>
      </trkpt>
      <trkpt lat="49.30974" lon="2.49502">
        <ele>93</ele>
        <time>2011-09-06T14:45:57Z</time>
      </trkpt>
      <trkpt lat="49.30966" lon="2.4951">
        <ele>93</ele>
        <time>2011-09-06T14:46:24Z</time>
      </trkpt>
      <trkpt lat="49.30959" lon="2.4952">
        <ele>93</ele>
        <time>2011-09-06T14:46:33Z</time>
      </trkpt>
      <trkpt lat="49.3095" lon="2.49526">
        <ele>93</ele>
        <time>2011-09-06T14:46:41Z</time>
      </trkpt>
      <trkpt lat="49.30943" lon="2.49535">
        <ele>93</ele>
        <time>2011-09-06T14:46:51Z</time>
      </trkpt>
      <trkpt lat="49.30935" lon="2.49543">
        <ele>93</ele>
        <time>2011-09-06T14:46:59Z</time>
      </trkpt>
      <trkpt lat="49.30928" lon="2.49552">
        <ele>93</ele>
        <time>2011-09-06T14:47:07Z</time>
      </trkpt>
      <trkpt lat="49.30921" lon="2.49562">
        <ele>93</ele>
        <time>2011-09-06T14:47:14Z</time>
      </trkpt>
      <trkpt lat="49.30913" lon="2.49572">
        <ele>93</ele>
        <time>2011-09-06T14:47:23Z</time>
      </trkpt>
      <trkpt lat="49.30906" lon="2.49581">
        <ele>93</ele>
        <time>2011-09-06T14:47:30Z</time>
      </trkpt>
      <trkpt lat="49.30899" lon="2.49591">
        <ele>93</ele>
        <time>2011-09-06T14:47:38Z</time>
      </trkpt>
      <trkpt lat="49.30892" lon="2.49601">
        <ele>93</ele>
        <time>2011-09-06T14:47:46Z</time>
      </trkpt>
      <trkpt lat="49.30885" lon="2.49613">
        <ele>93</ele>
        <time>2011-09-06T14:47:54Z</time>
      </trkpt>
      <trkpt lat="49.30879" lon="2.49625">
        <ele>93</ele>
        <time>2011-09-06T14:48:02Z</time>
      </trkpt>
      <trkpt lat="49.30873" lon="2.49636">
        <ele>93</ele>
        <time>2011-09-06T14:48:09Z</time>
      </trkpt>
      <trkpt lat="49.30866" lon="2.49645">
        <ele>93</ele>
        <time>2011-09-06T14:48:17Z</time>
      </trkpt>
      <trkpt lat="49.3086" lon="2.49657">
        <ele>93</ele>
        <time>2011-09-06T14:48:26Z</time>
      </trkpt>
      <trkpt lat="49.30854" lon="2.49668">
        <ele>93</ele>
        <time>2011-09-06T14:48:34Z</time>
      </trkpt>
      <trkpt lat="49.30846" lon="2.49679">
        <ele>93</ele>
        <time>2011-09-06T14:48:43Z</time>
      </trkpt>
      <trkpt lat="49.30841" lon="2.4969">
        <ele>93</ele>
        <time>2011-09-06T14:48:49Z</time>
      </trkpt>
      <trkpt lat="49.30834" lon="2.49701">
        <ele>93</ele>
        <time>2011-09-06T14:48:57Z</time>
      </trkpt>
      <trkpt lat="49.30828" lon="2.49712">
        <ele>99</ele>
        <time>2011-09-06T14:49:04Z</time>
      </trkpt>
      <trkpt lat="49.30822" lon="2.49723">
        <ele>99</ele>
        <time>2011-09-06T14:49:12Z</time>
      </trkpt>
      <trkpt lat="49.30814" lon="2.49733">
        <ele>99</ele>
        <time>2011-09-06T14:49:20Z</time>
      </trkpt>
      <trkpt lat="49.30807" lon="2.49745">
        <ele>99</ele>
        <time>2011-09-06T14:49:29Z</time>
      </trkpt>
      <trkpt lat="49.308" lon="2.49755">
        <ele>104</ele>
        <time>2011-09-06T14:49:37Z</time>
      </trkpt>
      <trkpt lat="49.30795" lon="2.49768">
        <ele>104</ele>
        <time>2011-09-06T14:49:45Z</time>
      </trkpt>
      <trkpt lat="49.30789" lon="2.49779">
        <ele>104</ele>
        <time>2011-09-06T14:49:54Z</time>
      </trkpt>
      <trkpt lat="49.30782" lon="2.49791">
        <ele>97</ele>
        <time>2011-09-06T14:50:04Z</time>
      </trkpt>
      <trkpt lat="49.30775" lon="2.49802">
        <ele>97</ele>
        <time>2011-09-06T14:50:11Z</time>
      </trkpt>
      <trkpt lat="49.30769" lon="2.49812">
        <ele>103</ele>
        <time>2011-09-06T14:50:16Z</time>
      </trkpt>
      <trkpt lat="49.30762" lon="2.49822">
        <ele>103</ele>
        <time>2011-09-06T14:50:24Z</time>
      </trkpt>
      <trkpt lat="49.30755" lon="2.49832">
        <ele>103</ele>
        <time>2011-09-06T14:50:31Z</time>
      </trkpt>
      <trkpt lat="49.30749" lon="2.49844">
        <ele>109</ele>
        <time>2011-09-06T14:50:39Z</time>
      </trkpt>
      <trkpt lat="49.30743" lon="2.49854">
        <ele>109</ele>
        <time>2011-09-06T14:50:46Z</time>
      </trkpt>
      <trkpt lat="49.30737" lon="2.49866">
        <ele>109</ele>
        <time>2011-09-06T14:50:55Z</time>
      </trkpt>
      <trkpt lat="49.30731" lon="2.49875">
        <ele>109</ele>
        <time>2011-09-06T14:51:02Z</time>
      </trkpt>
      <trkpt lat="49.30727" lon="2.4989">
        <ele>109</ele>
        <time>2011-09-06T14:51:12Z</time>
      </trkpt>
      <trkpt lat="49.3072" lon="2.49899">
        <ele>109</ele>
        <time>2011-09-06T14:51:18Z</time>
      </trkpt>
      <trkpt lat="49.30712" lon="2.49908">
        <ele>109</ele>
        <time>2011-09-06T14:51:24Z</time>
      </trkpt>
      <trkpt lat="49.3071" lon="2.49921">
        <ele>103</ele>
        <time>2011-09-06T14:51:33Z</time>
      </trkpt>
      <trkpt lat="49.30702" lon="2.49931">
        <ele>103</ele>
        <time>2011-09-06T14:51:39Z</time>
      </trkpt>
      <trkpt lat="49.30695" lon="2.49941">
        <ele>110</ele>
        <time>2011-09-06T14:51:45Z</time>
      </trkpt>
      <trkpt lat="49.30689" lon="2.49954">
        <ele>110</ele>
        <time>2011-09-06T14:51:55Z</time>
      </trkpt>
      <trkpt lat="49.30686" lon="2.49967">
        <ele>99</ele>
        <time>2011-09-06T14:52:06Z</time>
      </trkpt>
      <trkpt lat="49.30681" lon="2.4998">
        <ele>99</ele>
        <time>2011-09-06T14:52:12Z</time>
      </trkpt>
      <trkpt lat="49.3068" lon="2.49994">
        <ele>109</ele>
        <time>2011-09-06T14:52:45Z</time>
      </trkpt>
      <trkpt lat="49.30672" lon="2.50002">
        <ele>109</ele>
        <time>2011-09-06T14:52:52Z</time>
      </trkpt>
      <trkpt lat="49.30663" lon="2.50008">
        <ele>109</ele>
        <time>2011-09-06T14:52:59Z</time>
      </trkpt>
      <trkpt lat="49.30655" lon="2.50016">
        <ele>109</ele>
        <time>2011-09-06T14:53:05Z</time>
      </trkpt>
      <trkpt lat="49.30646" lon="2.50023">
        <ele>104</ele>
        <time>2011-09-06T14:53:13Z</time>
      </trkpt>
      <trkpt lat="49.3064" lon="2.50034">
        <ele>94</ele>
        <time>2011-09-06T14:53:23Z</time>
      </trkpt>
      <trkpt lat="49.30633" lon="2.50044">
        <ele>94</ele>
        <time>2011-09-06T14:53:31Z</time>
      </trkpt>
      <trkpt lat="49.30627" lon="2.50057">
        <ele>94</ele>
        <time>2011-09-06T14:53:39Z</time>
      </trkpt>
      <trkpt lat="49.30622" lon="2.50069">
        <ele>94</ele>
        <time>2011-09-06T14:53:45Z</time>
      </trkpt>
      <trkpt lat="49.30617" lon="2.50082">
        <ele>94</ele>
        <time>2011-09-06T14:53:55Z</time>
      </trkpt>
      <trkpt lat="49.30611" lon="2.50093">
        <ele>94</ele>
        <time>2011-09-06T14:54:01Z</time>
      </trkpt>
      <trkpt lat="49.30604" lon="2.50106">
        <ele>100</ele>
        <time>2011-09-06T14:54:09Z</time>
      </trkpt>
      <trkpt lat="49.30598" lon="2.50117">
        <ele>100</ele>
        <time>2011-09-06T14:54:13Z</time>
      </trkpt>
      <trkpt lat="49.30594" lon="2.50131">
        <ele>100</ele>
        <time>2011-09-06T14:54:23Z</time>
      </trkpt>
      <trkpt lat="49.30584" lon="2.50137">
        <ele>100</ele>
        <time>2011-09-06T14:54:32Z</time>
      </trkpt>
      <trkpt lat="49.30576" lon="2.50144">
        <ele>100</ele>
        <time>2011-09-06T14:54:40Z</time>
      </trkpt>
      <trkpt lat="49.30569" lon="2.50155">
        <ele>100</ele>
        <time>2011-09-06T14:54:47Z</time>
      </trkpt>
      <trkpt lat="49.3056" lon="2.50165">
        <ele>108</ele>
        <time>2011-09-06T14:54:55Z</time>
      </trkpt>
      <trkpt lat="49.30555" lon="2.50178">
        <ele>108</ele>
        <time>2011-09-06T14:55:01Z</time>
      </trkpt>
      <trkpt lat="49.30545" lon="2.50184">
        <ele>115</ele>
        <time>2011-09-06T14:55:08Z</time>
      </trkpt>
      <trkpt lat="49.30538" lon="2.50198">
        <ele>115</ele>
        <time>2011-09-06T14:55:14Z</time>
      </trkpt>
      <trkpt lat="49.30533" lon="2.50213">
        <ele>109</ele>
        <time>2011-09-06T14:55:24Z</time>
      </trkpt>
      <trkpt lat="49.30529" lon="2.50227">
        <ele>103</ele>
        <time>2011-09-06T14:55:32Z</time>
      </trkpt>
      <trkpt lat="49.30523" lon="2.50237">
        <ele>103</ele>
        <time>2011-09-06T14:55:41Z</time>
      </trkpt>
      <trkpt lat="49.30518" lon="2.5025">
        <ele>103</ele>
        <time>2011-09-06T14:55:50Z</time>
      </trkpt>
      <trkpt lat="49.3051" lon="2.50261">
        <ele>103</ele>
        <time>2011-09-06T14:55:58Z</time>
      </trkpt>
      <trkpt lat="49.30503" lon="2.50271">
        <ele>108</ele>
        <time>2011-09-06T14:56:05Z</time>
      </trkpt>
      <trkpt lat="49.30498" lon="2.50284">
        <ele>108</ele>
        <time>2011-09-06T14:56:13Z</time>
      </trkpt>
      <trkpt lat="49.30492" lon="2.50295">
        <ele>108</ele>
        <time>2011-09-06T14:56:22Z</time>
      </trkpt>
      <trkpt lat="49.30487" lon="2.50308">
        <ele>108</ele>
        <time>2011-09-06T14:56:32Z</time>
      </trkpt>
      <trkpt lat="49.30484" lon="2.50323">
        <ele>108</ele>
        <time>2011-09-06T14:56:40Z</time>
      </trkpt>
      <trkpt lat="49.30478" lon="2.50334">
        <ele>99</ele>
        <time>2011-09-06T14:56:48Z</time>
      </trkpt>
      <trkpt lat="49.30471" lon="2.50343">
        <ele>99</ele>
        <time>2011-09-06T14:56:57Z</time>
      </trkpt>
      <trkpt lat="49.30463" lon="2.50352">
        <ele>99</ele>
        <time>2011-09-06T14:57:02Z</time>
      </trkpt>
      <trkpt lat="49.30455" lon="2.5036">
        <ele>104</ele>
        <time>2011-09-06T14:57:10Z</time>
      </trkpt>
      <trkpt lat="49.30449" lon="2.50371">
        <ele>104</ele>
        <time>2011-09-06T14:57:20Z</time>
      </trkpt>
      <trkpt lat="49.30444" lon="2.50384">
        <ele>104</ele>
        <time>2011-09-06T14:57:28Z</time>
      </trkpt>
      <trkpt lat="49.30435" lon="2.50393">
        <ele>104</ele>
        <time>2011-09-06T14:57:37Z</time>
      </trkpt>
      <trkpt lat="49.30427" lon="2.50399">
        <ele>104</ele>
        <time>2011-09-06T14:57:43Z</time>
      </trkpt>
      <trkpt lat="49.30419" lon="2.50406">
        <ele>104</ele>
        <time>2011-09-06T14:57:49Z</time>
      </trkpt>
      <trkpt lat="49.30411" lon="2.50415">
        <ele>96</ele>
        <time>2011-09-06T14:57:57Z</time>
      </trkpt>
      <trkpt lat="49.30404" lon="2.50424">
        <ele>96</ele>
        <time>2011-09-06T14:58:03Z</time>
      </trkpt>
      <trkpt lat="49.30398" lon="2.50436">
        <ele>96</ele>
        <time>2011-09-06T14:58:11Z</time>
      </trkpt>
      <trkpt lat="49.30392" lon="2.50449">
        <ele>96</ele>
        <time>2011-09-06T14:58:20Z</time>
      </trkpt>
      <trkpt lat="49.30385" lon="2.50458">
        <ele>96</ele>
        <time>2011-09-06T14:58:30Z</time>
      </trkpt>
      <trkpt lat="49.30378" lon="2.50467">
        <ele>96</ele>
        <time>2011-09-06T14:58:36Z</time>
      </trkpt>
      <trkpt lat="49.30372" lon="2.50478">
        <ele>96</ele>
        <time>2011-09-06T14:58:45Z</time>
      </trkpt>
      <trkpt lat="49.30365" lon="2.50488">
        <ele>96</ele>
        <time>2011-09-06T14:58:53Z</time>
      </trkpt>
      <trkpt lat="49.30358" lon="2.50499">
        <ele>96</ele>
        <time>2011-09-06T14:59:02Z</time>
      </trkpt>
      <trkpt lat="49.3035" lon="2.50509">
        <ele>96</ele>
        <time>2011-09-06T14:59:11Z</time>
      </trkpt>
      <trkpt lat="49.30343" lon="2.50519">
        <ele>96</ele>
        <time>2011-09-06T14:59:19Z</time>
      </trkpt>
      <trkpt lat="49.30335" lon="2.50528">
        <ele>96</ele>
        <time>2011-09-06T14:59:25Z</time>
      </trkpt>
      <trkpt lat="49.30331" lon="2.50542">
        <ele>96</ele>
        <time>2011-09-06T14:59:32Z</time>
      </trkpt>
      <trkpt lat="49.30321" lon="2.50551">
        <ele>103</ele>
        <time>2011-09-06T14:59:38Z</time>
      </trkpt>
      <trkpt lat="49.30314" lon="2.50562">
        <ele>103</ele>
        <time>2011-09-06T14:59:48Z</time>
      </trkpt>
      <trkpt lat="49.30309" lon="2.50573">
        <ele>103</ele>
        <time>2011-09-06T14:59:54Z</time>
      </trkpt>
      <trkpt lat="49.30307" lon="2.5056">
        <ele>96</ele>
        <time>2011-09-06T15:00:06Z</time>
      </trkpt>
      <trkpt lat="49.3031" lon="2.50544">
        <ele>88</ele>
        <time>2011-09-06T15:00:13Z</time>
      </trkpt>
      <trkpt lat="49.30307" lon="2.50527">
        <ele>88</ele>
        <time>2011-09-06T15:00:21Z</time>
      </trkpt>
      <trkpt lat="49.30301" lon="2.50516">
        <ele>88</ele>
        <time>2011-09-06T15:00:25Z</time>
      </trkpt>
      <trkpt lat="49.30298" lon="2.50502">
        <ele>105</ele>
        <time>2011-09-06T15:00:33Z</time>
      </trkpt>
      <trkpt lat="49.30297" lon="2.50488">
        <ele>105</ele>
        <time>2011-09-06T15:00:41Z</time>
      </trkpt>
      <trkpt lat="49.303" lon="2.50475">
        <ele>105</ele>
        <time>2011-09-06T15:00:50Z</time>
      </trkpt>
      <trkpt lat="49.30304" lon="2.50461">
        <ele>105</ele>
        <time>2011-09-06T15:01:00Z</time>
      </trkpt>
      <trkpt lat="49.30307" lon="2.50448">
        <ele>105</ele>
        <time>2011-09-06T15:01:08Z</time>
      </trkpt>
      <trkpt lat="49.3031" lon="2.50434">
        <ele>96</ele>
        <time>2011-09-06T15:01:17Z</time>
      </trkpt>
      <trkpt lat="49.30309" lon="2.5042">
        <ele>89</ele>
        <time>2011-09-06T15:01:28Z</time>
      </trkpt>
      <trkpt lat="49.30304" lon="2.50407">
        <ele>89</ele>
        <time>2011-09-06T15:01:37Z</time>
      </trkpt>
      <trkpt lat="49.303" lon="2.50395">
        <ele>95</ele>
        <time>2011-09-06T15:01:46Z</time>
      </trkpt>
      <trkpt lat="49.30295" lon="2.50382">
        <ele>95</ele>
        <time>2011-09-06T15:01:53Z</time>
      </trkpt>
      <trkpt lat="49.30292" lon="2.50368">
        <ele>95</ele>
        <time>2011-09-06T15:02:01Z</time>
      </trkpt>
      <trkpt lat="49.3029" lon="2.50352">
        <ele>95</ele>
        <time>2011-09-06T15:02:09Z</time>
      </trkpt>
      <trkpt lat="49.30287" lon="2.50339">
        <ele>100</ele>
        <time>2011-09-06T15:02:17Z</time>
      </trkpt>
      <trkpt lat="49.30285" lon="2.50325">
        <ele>100</ele>
        <time>2011-09-06T15:02:25Z</time>
      </trkpt>
      <trkpt lat="49.30282" lon="2.50311">
        <ele>100</ele>
        <time>2011-09-06T15:02:32Z</time>
      </trkpt>
      <trkpt lat="49.30278" lon="2.50297">
        <ele>106</ele>
        <time>2011-09-06T15:02:40Z</time>
      </trkpt>
      <trkpt lat="49.30277" lon="2.50282">
        <ele>106</ele>
        <time>2011-09-06T15:02:49Z</time>
      </trkpt>
      <trkpt lat="49.30275" lon="2.50267">
        <ele>106</ele>
        <time>2011-09-06T15:02:58Z</time>
      </trkpt>
      <trkpt lat="49.3027" lon="2.50255">
        <ele>106</ele>
        <time>2011-09-06T15:03:05Z</time>
      </trkpt>
      <trkpt lat="49.30267" lon="2.50241">
        <ele>106</ele>
        <time>2011-09-06T15:03:13Z</time>
      </trkpt>
      <trkpt lat="49.30265" lon="2.50226">
        <ele>106</ele>
        <time>2011-09-06T15:03:23Z</time>
      </trkpt>
      <trkpt lat="49.30264" lon="2.50211">
        <ele>106</ele>
        <time>2011-09-06T15:03:32Z</time>
      </trkpt>
      <trkpt lat="49.30261" lon="2.50197">
        <ele>106</ele>
        <time>2011-09-06T15:03:39Z</time>
      </trkpt>
      <trkpt lat="49.3026" lon="2.50182">
        <ele>106</ele>
        <time>2011-09-06T15:03:47Z</time>
      </trkpt>
      <trkpt lat="49.30258" lon="2.50166">
        <ele>106</ele>
        <time>2011-09-06T15:03:55Z</time>
      </trkpt>
      <trkpt lat="49.30257" lon="2.50151">
        <ele>106</ele>
        <time>2011-09-06T15:04:03Z</time>
      </trkpt>
      <trkpt lat="49.30257" lon="2.50136">
        <ele>106</ele>
        <time>2011-09-06T15:04:12Z</time>
      </trkpt>
      <trkpt lat="49.30256" lon="2.50121">
        <ele>106</ele>
        <time>2011-09-06T15:04:22Z</time>
      </trkpt>
      <trkpt lat="49.30256" lon="2.50105">
        <ele>106</ele>
        <time>2011-09-06T15:04:31Z</time>
      </trkpt>
      <trkpt lat="49.30253" lon="2.50092">
        <ele>106</ele>
        <time>2011-09-06T15:04:39Z</time>
      </trkpt>
      <trkpt lat="49.30251" lon="2.50077">
        <ele>106</ele>
        <time>2011-09-06T15:04:47Z</time>
      </trkpt>
      <trkpt lat="49.30251" lon="2.50062">
        <ele>100</ele>
        <time>2011-09-06T15:04:56Z</time>
      </trkpt>
      <trkpt lat="49.3025" lon="2.50048">
        <ele>100</ele>
        <time>2011-09-06T15:05:04Z</time>
      </trkpt>
      <trkpt lat="49.30247" lon="2.50034">
        <ele>100</ele>
        <time>2011-09-06T15:05:12Z</time>
      </trkpt>
      <trkpt lat="49.30244" lon="2.50021">
        <ele>100</ele>
        <time>2011-09-06T15:05:20Z</time>
      </trkpt>
      <trkpt lat="49.30243" lon="2.50007">
        <ele>100</ele>
        <time>2011-09-06T15:05:29Z</time>
      </trkpt>
      <trkpt lat="49.30241" lon="2.49991">
        <ele>100</ele>
        <time>2011-09-06T15:05:38Z</time>
      </trkpt>
      <trkpt lat="49.30242" lon="2.49976">
        <ele>100</ele>
        <time>2011-09-06T15:05:47Z</time>
      </trkpt>
      <trkpt lat="49.30243" lon="2.49962">
        <ele>100</ele>
        <time>2011-09-06T15:05:56Z</time>
      </trkpt>
      <trkpt lat="49.30241" lon="2.49947">
        <ele>100</ele>
        <time>2011-09-06T15:06:04Z</time>
      </trkpt>
      <trkpt lat="49.30243" lon="2.49932">
        <ele>100</ele>
        <time>2011-09-06T15:06:13Z</time>
      </trkpt>
      <trkpt lat="49.30243" lon="2.49918">
        <ele>100</ele>
        <time>2011-09-06T15:06:22Z</time>
      </trkpt>
      <trkpt lat="49.30243" lon="2.49901">
        <ele>100</ele>
        <time>2011-09-06T15:06:31Z</time>
      </trkpt>
      <trkpt lat="49.30242" lon="2.49885">
        <ele>100</ele>
        <time>2011-09-06T15:06:40Z</time>
      </trkpt>
      <trkpt lat="49.30243" lon="2.4987">
        <ele>100</ele>
        <time>2011-09-06T15:06:49Z</time>
      </trkpt>
      <trkpt lat="49.30244" lon="2.49856">
        <ele>100</ele>
        <time>2011-09-06T15:06:57Z</time>
      </trkpt>
      <trkpt lat="49.30241" lon="2.49841">
        <ele>100</ele>
        <time>2011-09-06T15:07:03Z</time>
      </trkpt>
      <trkpt lat="49.3024" lon="2.49826">
        <ele>100</ele>
        <time>2011-09-06T15:07:12Z</time>
      </trkpt>
      <trkpt lat="49.3024" lon="2.49812">
        <ele>100</ele>
        <time>2011-09-06T15:07:20Z</time>
      </trkpt>
      <trkpt lat="49.30239" lon="2.49796">
        <ele>100</ele>
        <time>2011-09-06T15:07:29Z</time>
      </trkpt>
      <trkpt lat="49.30234" lon="2.49785">
        <ele>100</ele>
        <time>2011-09-06T15:07:40Z</time>
      </trkpt>
      <trkpt lat="49.30233" lon="2.4977">
        <ele>106</ele>
        <time>2011-09-06T15:07:48Z</time>
      </trkpt>
      <trkpt lat="49.30231" lon="2.49756">
        <ele>106</ele>
        <time>2011-09-06T15:07:57Z</time>
      </trkpt>
      <trkpt lat="49.30229" lon="2.49742">
        <ele>106</ele>
        <time>2011-09-06T15:08:06Z</time>
      </trkpt>
      <trkpt lat="49.30228" lon="2.49727">
        <ele>106</ele>
        <time>2011-09-06T15:08:14Z</time>
      </trkpt>
      <trkpt lat="49.30227" lon="2.49712">
        <ele>106</ele>
        <time>2011-09-06T15:08:22Z</time>
      </trkpt>
      <trkpt lat="49.30224" lon="2.49698">
        <ele>106</ele>
        <time>2011-09-06T15:08:30Z</time>
      </trkpt>
      <trkpt lat="49.30224" lon="2.49683">
        <ele>106</ele>
        <time>2011-09-06T15:08:39Z</time>
      </trkpt>
      <trkpt lat="49.30222" lon="2.49669">
        <ele>101</ele>
        <time>2011-09-06T15:08:47Z</time>
      </trkpt>
      <trkpt lat="49.30221" lon="2.49654">
        <ele>101</ele>
        <time>2011-09-06T15:08:55Z</time>
      </trkpt>
      <trkpt lat="49.30219" lon="2.4964">
        <ele>101</ele>
        <time>2011-09-06T15:09:03Z</time>
      </trkpt>
      <trkpt lat="49.30216" lon="2.49625">
        <ele>101</ele>
        <time>2011-09-06T15:09:12Z</time>
      </trkpt>
      <trkpt lat="49.30214" lon="2.49611">
        <ele>101</ele>
        <time>2011-09-06T15:09:20Z</time>
      </trkpt>
      <trkpt lat="49.30213" lon="2.49596">
        <ele>101</ele>
        <time>2011-09-06T15:09:29Z</time>
      </trkpt>
      <trkpt lat="49.3021" lon="2.49581">
        <ele>101</ele>
        <time>2011-09-06T15:09:38Z</time>
      </trkpt>
      <trkpt lat="49.30208" lon="2.49566">
        <ele>101</ele>
        <time>2011-09-06T15:09:46Z</time>
      </trkpt>
      <trkpt lat="49.30206" lon="2.49551">
        <ele>101</ele>
        <time>2011-09-06T15:09:55Z</time>
      </trkpt>
      <trkpt lat="49.30204" lon="2.49536">
        <ele>101</ele>
        <time>2011-09-06T15:10:04Z</time>
      </trkpt>
      <trkpt lat="49.30201" lon="2.49521">
        <ele>101</ele>
        <time>2011-09-06T15:10:13Z</time>
      </trkpt>
      <trkpt lat="49.30198" lon="2.49507">
        <ele>101</ele>
        <time>2011-09-06T15:10:22Z</time>
      </trkpt>
      <trkpt lat="49.30195" lon="2.49494">
        <ele>101</ele>
        <time>2011-09-06T15:10:30Z</time>
      </trkpt>
      <trkpt lat="49.30193" lon="2.49479">
        <ele>101</ele>
        <time>2011-09-06T15:10:38Z</time>
      </trkpt>
      <trkpt lat="49.3019" lon="2.49466">
        <ele>101</ele>
        <time>2011-09-06T15:10:46Z</time>
      </trkpt>
      <trkpt lat="49.30189" lon="2.49451">
        <ele>101</ele>
        <time>2011-09-06T15:10:54Z</time>
      </trkpt>
      <trkpt lat="49.30186" lon="2.49437">
        <ele>101</ele>
        <time>2011-09-06T15:11:02Z</time>
      </trkpt>
      <trkpt lat="49.30182" lon="2.49423">
        <ele>101</ele>
        <time>2011-09-06T15:11:10Z</time>
      </trkpt>
      <trkpt lat="49.30179" lon="2.49409">
        <ele>101</ele>
        <time>2011-09-06T15:11:18Z</time>
      </trkpt>
      <trkpt lat="49.30177" lon="2.49395">
        <ele>101</ele>
        <time>2011-09-06T15:11:26Z</time>
      </trkpt>
      <trkpt lat="49.30173" lon="2.4938">
        <ele>101</ele>
        <time>2011-09-06T15:11:35Z</time>
      </trkpt>
      <trkpt lat="49.3017" lon="2.49364">
        <ele>101</ele>
        <time>2011-09-06T15:11:44Z</time>
      </trkpt>
      <trkpt lat="49.30167" lon="2.4935">
        <ele>101</ele>
        <time>2011-09-06T15:11:53Z</time>
      </trkpt>
      <trkpt lat="49.30165" lon="2.49336">
        <ele>101</ele>
        <time>2011-09-06T15:12:01Z</time>
      </trkpt>
      <trkpt lat="49.30163" lon="2.49322">
        <ele>101</ele>
        <time>2011-09-06T15:12:09Z</time>
      </trkpt>
      <trkpt lat="49.3016" lon="2.49308">
        <ele>101</ele>
        <time>2011-09-06T15:12:23Z</time>
      </trkpt>
      <trkpt lat="49.30157" lon="2.49293">
        <ele>101</ele>
        <time>2011-09-06T15:12:32Z</time>
      </trkpt>
      <trkpt lat="49.30156" lon="2.49278">
        <ele>101</ele>
        <time>2011-09-06T15:12:41Z</time>
      </trkpt>
      <trkpt lat="49.30154" lon="2.49263">
        <ele>101</ele>
        <time>2011-09-06T15:12:50Z</time>
      </trkpt>
      <trkpt lat="49.30154" lon="2.49248">
        <ele>101</ele>
        <time>2011-09-06T15:12:58Z</time>
      </trkpt>
      <trkpt lat="49.30153" lon="2.49233">
        <ele>101</ele>
        <time>2011-09-06T15:13:07Z</time>
      </trkpt>
      <trkpt lat="49.30151" lon="2.49218">
        <ele>101</ele>
        <time>2011-09-06T15:13:16Z</time>
      </trkpt>
      <trkpt lat="49.30149" lon="2.49203">
        <ele>101</ele>
        <time>2011-09-06T15:13:24Z</time>
      </trkpt>
      <trkpt lat="49.30147" lon="2.49189">
        <ele>101</ele>
        <time>2011-09-06T15:13:33Z</time>
      </trkpt>
      <trkpt lat="49.30145" lon="2.49175">
        <ele>101</ele>
        <time>2011-09-06T15:13:41Z</time>
      </trkpt>
      <trkpt lat="49.30142" lon="2.49161">
        <ele>101</ele>
        <time>2011-09-06T15:13:49Z</time>
      </trkpt>
      <trkpt lat="49.3014" lon="2.49148">
        <ele>101</ele>
        <time>2011-09-06T15:13:57Z</time>
      </trkpt>
      <trkpt lat="49.30137" lon="2.49134">
        <ele>101</ele>
        <time>2011-09-06T15:14:05Z</time>
      </trkpt>
      <trkpt lat="49.30134" lon="2.4912">
        <ele>101</ele>
        <time>2011-09-06T15:14:13Z</time>
      </trkpt>
      <trkpt lat="49.30131" lon="2.49106">
        <ele>101</ele>
        <time>2011-09-06T15:14:21Z</time>
      </trkpt>
      <trkpt lat="49.30127" lon="2.49092">
        <ele>101</ele>
        <time>2011-09-06T15:14:30Z</time>
      </trkpt>
      <trkpt lat="49.30125" lon="2.49078">
        <ele>101</ele>
        <time>2011-09-06T15:14:38Z</time>
      </trkpt>
      <trkpt lat="49.30122" lon="2.49064">
        <ele>101</ele>
        <time>2011-09-06T15:14:46Z</time>
      </trkpt>
      <trkpt lat="49.30118" lon="2.49051">
        <ele>101</ele>
        <time>2011-09-06T15:14:54Z</time>
      </trkpt>
      <trkpt lat="49.30115" lon="2.49037">
        <ele>101</ele>
        <time>2011-09-06T15:15:02Z</time>
      </trkpt>
      <trkpt lat="49.30113" lon="2.49024">
        <ele>101</ele>
        <time>2011-09-06T15:15:10Z</time>
      </trkpt>
      <trkpt lat="49.3011" lon="2.4901">
        <ele>101</ele>
        <time>2011-09-06T15:15:18Z</time>
      </trkpt>
      <trkpt lat="49.30108" lon="2.48996">
        <ele>101</ele>
        <time>2011-09-06T15:15:26Z</time>
      </trkpt>
      <trkpt lat="49.30104" lon="2.48983">
        <ele>101</ele>
        <time>2011-09-06T15:15:34Z</time>
      </trkpt>
      <trkpt lat="49.30101" lon="2.48969">
        <ele>101</ele>
        <time>2011-09-06T15:15:42Z</time>
      </trkpt>
      <trkpt lat="49.30097" lon="2.48956">
        <ele>101</ele>
        <time>2011-09-06T15:15:50Z</time>
      </trkpt>
      <trkpt lat="49.30092" lon="2.48944">
        <ele>101</ele>
        <time>2011-09-06T15:15:58Z</time>
      </trkpt>
      <trkpt lat="49.30088" lon="2.4893">
        <ele>101</ele>
        <time>2011-09-06T15:16:07Z</time>
      </trkpt>
      <trkpt lat="49.30083" lon="2.48918">
        <ele>101</ele>
        <time>2011-09-06T15:16:15Z</time>
      </trkpt>
      <trkpt lat="49.30078" lon="2.48904">
        <ele>101</ele>
        <time>2011-09-06T15:16:23Z</time>
      </trkpt>
      <trkpt lat="49.30073" lon="2.48891">
        <ele>101</ele>
        <time>2011-09-06T15:16:31Z</time>
      </trkpt>
      <trkpt lat="49.30068" lon="2.48879">
        <ele>101</ele>
        <time>2011-09-06T15:16:39Z</time>
      </trkpt>
      <trkpt lat="49.30063" lon="2.48867">
        <ele>101</ele>
        <time>2011-09-06T15:16:47Z</time>
      </trkpt>
      <trkpt lat="49.30058" lon="2.48854">
        <ele>101</ele>
        <time>2011-09-06T15:16:55Z</time>
      </trkpt>
      <trkpt lat="49.30053" lon="2.48841">
        <ele>101</ele>
        <time>2011-09-06T15:17:03Z</time>
      </trkpt>
      <trkpt lat="49.30049" lon="2.48828">
        <ele>101</ele>
        <time>2011-09-06T15:17:11Z</time>
      </trkpt>
      <trkpt lat="49.30045" lon="2.48815">
        <ele>101</ele>
        <time>2011-09-06T15:17:19Z</time>
      </trkpt>
      <trkpt lat="49.30041" lon="2.48801">
        <ele>101</ele>
        <time>2011-09-06T15:17:27Z</time>
      </trkpt>
      <trkpt lat="49.30036" lon="2.48788">
        <ele>101</ele>
        <time>2011-09-06T15:17:35Z</time>
      </trkpt>
      <trkpt lat="49.30032" lon="2.48776">
        <ele>101</ele>
        <time>2011-09-06T15:17:43Z</time>
      </trkpt>
      <trkpt lat="49.30028" lon="2.48763">
        <ele>101</ele>
        <time>2011-09-06T15:17:50Z</time>
      </trkpt>
      <trkpt lat="49.30024" lon="2.48751">
        <ele>101</ele>
        <time>2011-09-06T15:17:58Z</time>
      </trkpt>
      <trkpt lat="49.30021" lon="2.48737">
        <ele>101</ele>
        <time>2011-09-06T15:18:06Z</time>
      </trkpt>
      <trkpt lat="49.30016" lon="2.48725">
        <ele>101</ele>
        <time>2011-09-06T15:18:14Z</time>
      </trkpt>
      <trkpt lat="49.30014" lon="2.4871">
        <ele>101</ele>
        <time>2011-09-06T15:18:23Z</time>
      </trkpt>
      <trkpt lat="49.3001" lon="2.48696">
        <ele>101</ele>
        <time>2011-09-06T15:18:32Z</time>
      </trkpt>
      <trkpt lat="49.30006" lon="2.48683">
        <ele>101</ele>
        <time>2011-09-06T15:18:40Z</time>
      </trkpt>
      <trkpt lat="49.30002" lon="2.48671">
        <ele>101</ele>
        <time>2011-09-06T15:18:48Z</time>
      </trkpt>
      <trkpt lat="49.29998" lon="2.48657">
        <ele>101</ele>
        <time>2011-09-06T15:18:56Z</time>
      </trkpt>
      <trkpt lat="49.29995" lon="2.48643">
        <ele>101</ele>
        <time>2011-09-06T15:19:09Z</time>
      </trkpt>
      <trkpt lat="49.2999" lon="2.4863">
        <ele>106</ele>
        <time>2011-09-06T15:19:17Z</time>
      </trkpt>
      <trkpt lat="49.29986" lon="2.48616">
        <ele>106</ele>
        <time>2011-09-06T15:19:25Z</time>
      </trkpt>
      <trkpt lat="49.29983" lon="2.48603">
        <ele>106</ele>
        <time>2011-09-06T15:19:33Z</time>
      </trkpt>
      <trkpt lat="49.29981" lon="2.48589">
        <ele>106</ele>
        <time>2011-09-06T15:19:41Z</time>
      </trkpt>
      <trkpt lat="49.29976" lon="2.48575">
        <ele>106</ele>
        <time>2011-09-06T15:19:50Z</time>
      </trkpt>
      <trkpt lat="49.29972" lon="2.48562">
        <ele>106</ele>
        <time>2011-09-06T15:19:58Z</time>
      </trkpt>
      <trkpt lat="49.29964" lon="2.48553">
        <ele>106</ele>
        <time>2011-09-06T15:20:06Z</time>
      </trkpt>
      <trkpt lat="49.29955" lon="2.4855">
        <ele>106</ele>
        <time>2011-09-06T15:20:15Z</time>
      </trkpt>
      <trkpt lat="49.29945" lon="2.48546">
        <ele>106</ele>
        <time>2011-09-06T15:20:23Z</time>
      </trkpt>
      <trkpt lat="49.29936" lon="2.48542">
        <ele>106</ele>
        <time>2011-09-06T15:20:32Z</time>
      </trkpt>
      <trkpt lat="49.29927" lon="2.4854">
        <ele>106</ele>
        <time>2011-09-06T15:20:40Z</time>
      </trkpt>
      <trkpt lat="49.29917" lon="2.48537">
        <ele>106</ele>
        <time>2011-09-06T15:20:48Z</time>
      </trkpt>
      <trkpt lat="49.29907" lon="2.48534">
        <ele>106</ele>
        <time>2011-09-06T15:20:57Z</time>
      </trkpt>
      <trkpt lat="49.29897" lon="2.48532">
        <ele>106</ele>
        <time>2011-09-06T15:21:06Z</time>
      </trkpt>
      <trkpt lat="49.29887" lon="2.4853">
        <ele>106</ele>
        <time>2011-09-06T15:21:14Z</time>
      </trkpt>
      <trkpt lat="49.29878" lon="2.48529">
        <ele>106</ele>
        <time>2011-09-06T15:21:22Z</time>
      </trkpt>
      <trkpt lat="49.29868" lon="2.48529">
        <ele>106</ele>
        <time>2011-09-06T15:21:31Z</time>
      </trkpt>
      <trkpt lat="49.29858" lon="2.48528">
        <ele>106</ele>
        <time>2011-09-06T15:21:40Z</time>
      </trkpt>
      <trkpt lat="49.29848" lon="2.48528">
        <ele>106</ele>
        <time>2011-09-06T15:21:48Z</time>
      </trkpt>
      <trkpt lat="49.29839" lon="2.48528">
        <ele>106</ele>
        <time>2011-09-06T15:21:57Z</time>
      </trkpt>
      <trkpt lat="49.2983" lon="2.48529">
        <ele>106</ele>
        <time>2011-09-06T15:22:05Z</time>
      </trkpt>
      <trkpt lat="49.2982" lon="2.48529">
        <ele>106</ele>
        <time>2011-09-06T15:22:13Z</time>
      </trkpt>
      <trkpt lat="49.29811" lon="2.4853">
        <ele>106</ele>
        <time>2011-09-06T15:22:21Z</time>
      </trkpt>
      <trkpt lat="49.29801" lon="2.4853">
        <ele>106</ele>
        <time>2011-09-06T15:22:29Z</time>
      </trkpt>
      <trkpt lat="49.29791" lon="2.4853">
        <ele>106</ele>
        <time>2011-09-06T15:22:38Z</time>
      </trkpt>
      <trkpt lat="49.29781" lon="2.48531">
        <ele>106</ele>
        <time>2011-09-06T15:22:46Z</time>
      </trkpt>
      <trkpt lat="49.29772" lon="2.48532">
        <ele>106</ele>
        <time>2011-09-06T15:22:54Z</time>
      </trkpt>
      <trkpt lat="49.29763" lon="2.48533">
        <ele>106</ele>
        <time>2011-09-06T15:23:02Z</time>
      </trkpt>
      <trkpt lat="49.29753" lon="2.48537">
        <ele>106</ele>
        <time>2011-09-06T15:23:11Z</time>
      </trkpt>
      <trkpt lat="49.29743" lon="2.48537">
        <ele>106</ele>
        <time>2011-09-06T15:23:19Z</time>
      </trkpt>
      <trkpt lat="49.29733" lon="2.48538">
        <ele>106</ele>
        <time>2011-09-06T15:23:27Z</time>
      </trkpt>
      <trkpt lat="49.29723" lon="2.48539">
        <ele>106</ele>
        <time>2011-09-06T15:23:36Z</time>
      </trkpt>
      <trkpt lat="49.29713" lon="2.48541">
        <ele>106</ele>
        <time>2011-09-06T15:23:45Z</time>
      </trkpt>
      <trkpt lat="49.29703" lon="2.48542">
        <ele>106</ele>
        <time>2011-09-06T15:23:54Z</time>
      </trkpt>
      <trkpt lat="49.29693" lon="2.48543">
        <ele>106</ele>
        <time>2011-09-06T15:24:03Z</time>
      </trkpt>
      <trkpt lat="49.29684" lon="2.48544">
        <ele>106</ele>
        <time>2011-09-06T15:24:11Z</time>
      </trkpt>
      <trkpt lat="49.29675" lon="2.48548">
        <ele>106</ele>
        <time>2011-09-06T15:24:18Z</time>
      </trkpt>
      <trkpt lat="49.29666" lon="2.4855">
        <ele>106</ele>
        <time>2011-09-06T15:24:26Z</time>
      </trkpt>
      <trkpt lat="49.29656" lon="2.4855">
        <ele>106</ele>
        <time>2011-09-06T15:24:34Z</time>
      </trkpt>
      <trkpt lat="49.29646" lon="2.4855">
        <ele>106</ele>
        <time>2011-09-06T15:24:42Z</time>
      </trkpt>
      <trkpt lat="49.29637" lon="2.48551">
        <ele>106</ele>
        <time>2011-09-06T15:24:50Z</time>
      </trkpt>
      <trkpt lat="49.29626" lon="2.48551">
        <ele>106</ele>
        <time>2011-09-06T15:24:58Z</time>
      </trkpt>
      <trkpt lat="49.29616" lon="2.4855">
        <ele>106</ele>
        <time>2011-09-06T15:25:06Z</time>
      </trkpt>
      <trkpt lat="49.29606" lon="2.4855">
        <ele>106</ele>
        <time>2011-09-06T15:25:14Z</time>
      </trkpt>
      <trkpt lat="49.29596" lon="2.48548">
        <ele>106</ele>
        <time>2011-09-06T15:25:22Z</time>
      </trkpt>
      <trkpt lat="49.29587" lon="2.48546">
        <ele>106</ele>
        <time>2011-09-06T15:25:30Z</time>
      </trkpt>
      <trkpt lat="49.29578" lon="2.48542">
        <ele>106</ele>
        <time>2011-09-06T15:25:39Z</time>
      </trkpt>
      <trkpt lat="49.29568" lon="2.4854">
        <ele>100</ele>
        <time>2011-09-06T15:25:47Z</time>
      </trkpt>
      <trkpt lat="49.29559" lon="2.48537">
        <ele>100</ele>
        <time>2011-09-06T15:25:55Z</time>
      </trkpt>
      <trkpt lat="49.29549" lon="2.48534">
        <ele>100</ele>
        <time>2011-09-06T15:26:03Z</time>
      </trkpt>
      <trkpt lat="49.29539" lon="2.48531">
        <ele>100</ele>
        <time>2011-09-06T15:26:11Z</time>
      </trkpt>
      <trkpt lat="49.2953" lon="2.48527">
        <ele>100</ele>
        <time>2011-09-06T15:26:19Z</time>
      </trkpt>
      <trkpt lat="49.29521" lon="2.48525">
        <ele>100</ele>
        <time>2011-09-06T15:26:27Z</time>
      </trkpt>
      <trkpt lat="49.29511" lon="2.48523">
        <ele>100</ele>
        <time>2011-09-06T15:26:35Z</time>
      </trkpt>
      <trkpt lat="49.29502" lon="2.48519">
        <ele>100</ele>
        <time>2011-09-06T15:26:42Z</time>
      </trkpt>
      <trkpt lat="49.29492" lon="2.48516">
        <ele>100</ele>
        <time>2011-09-06T15:26:50Z</time>
      </trkpt>
      <trkpt lat="49.29482" lon="2.48513">
        <ele>100</ele>
        <time>2011-09-06T15:26:58Z</time>
      </trkpt>
      <trkpt lat="49.29472" lon="2.48509">
        <ele>100</ele>
        <time>2011-09-06T15:27:06Z</time>
      </trkpt>
      <trkpt lat="49.29462" lon="2.48507">
        <ele>100</ele>
        <time>2011-09-06T15:27:14Z</time>
      </trkpt>
      <trkpt lat="49.29452" lon="2.48506">
        <ele>100</ele>
        <time>2011-09-06T15:27:23Z</time>
      </trkpt>
      <trkpt lat="49.29442" lon="2.48504">
        <ele>100</ele>
        <time>2011-09-06T15:27:31Z</time>
      </trkpt>
      <trkpt lat="49.29433" lon="2.485">
        <ele>100</ele>
        <time>2011-09-06T15:27:39Z</time>
      </trkpt>
      <trkpt lat="49.29424" lon="2.48497">
        <ele>100</ele>
        <time>2011-09-06T15:27:48Z</time>
      </trkpt>
      <trkpt lat="49.29414" lon="2.48495">
        <ele>100</ele>
        <time>2011-09-06T15:27:56Z</time>
      </trkpt>
      <trkpt lat="49.29404" lon="2.48491">
        <ele>100</ele>
        <time>2011-09-06T15:28:05Z</time>
      </trkpt>
      <trkpt lat="49.29395" lon="2.48489">
        <ele>100</ele>
        <time>2011-09-06T15:28:13Z</time>
      </trkpt>
      <trkpt lat="49.29385" lon="2.48487">
        <ele>100</ele>
        <time>2011-09-06T15:28:19Z</time>
      </trkpt>
      <trkpt lat="49.29376" lon="2.48484">
        <ele>100</ele>
        <time>2011-09-06T15:28:28Z</time>
      </trkpt>
      <trkpt lat="49.29367" lon="2.48482">
        <ele>100</ele>
        <time>2011-09-06T15:28:43Z</time>
      </trkpt>
      <trkpt lat="49.29357" lon="2.48479">
        <ele>100</ele>
        <time>2011-09-06T15:28:49Z</time>
      </trkpt>
      <trkpt lat="49.29347" lon="2.48479">
        <ele>100</ele>
        <time>2011-09-06T15:29:03Z</time>
      </trkpt>
      <trkpt lat="49.29337" lon="2.4848">
        <ele>94</ele>
        <time>2011-09-06T15:29:10Z</time>
      </trkpt>
      <trkpt lat="49.29328" lon="2.4848">
        <ele>85</ele>
        <time>2011-09-06T15:29:20Z</time>
      </trkpt>
      <trkpt lat="49.29318" lon="2.48483">
        <ele>85</ele>
        <time>2011-09-06T15:29:30Z</time>
      </trkpt>
      <trkpt lat="49.29313" lon="2.48496">
        <ele>85</ele>
        <time>2011-09-06T15:29:44Z</time>
      </trkpt>
      <trkpt lat="49.29312" lon="2.4851">
        <ele>85</ele>
        <time>2011-09-06T15:29:54Z</time>
      </trkpt>
      <trkpt lat="49.2931" lon="2.48523">
        <ele>85</ele>
        <time>2011-09-06T15:30:04Z</time>
      </trkpt>
      <trkpt lat="49.29307" lon="2.48539">
        <ele>85</ele>
        <time>2011-09-06T15:30:14Z</time>
      </trkpt>
      <trkpt lat="49.29298" lon="2.48547">
        <ele>85</ele>
        <time>2011-09-06T15:30:22Z</time>
      </trkpt>
      <trkpt lat="49.29289" lon="2.48552">
        <ele>85</ele>
        <time>2011-09-06T15:30:31Z</time>
      </trkpt>
      <trkpt lat="49.2928" lon="2.48556">
        <ele>85</ele>
        <time>2011-09-06T15:30:39Z</time>
      </trkpt>
    </trkseg>
  </trk>
</gpx>